<?xml version="1.0" encoding="UTF-8" standalone="no" ?>
<gpx xmlns="http://www.topografix.com/GPX/1/1" xmlns:xsi="http://www.w3.org/2001/XMLSchema-instance" xsi:schemaLocation="http://www.topografix.com/GPX/1/1 http://www.topografix.com/GPX/1/1/gpx.xsd" version="1.1" creator="VisuGPX - https://www.visugpx.com">
  <metadata>
    <name>Tour du lac de Villerest - 19179 - UtagawaVTT.com</name>
  </metadata>
  <trk>
    <name><![CDATA[Tour du lac de Villerest - 19179 - UtagawaVTT.com]]></name>
    <trkseg>
      <trkpt lat="45.98706" lon="4.04405">
        <ele>326.17334</ele>
        <time>2019-08-31T07:14:26Z</time>
      </trkpt>
      <trkpt lat="45.98737" lon="4.04417">
        <ele>324.663513</ele>
        <time>2019-08-31T07:14:57Z</time>
      </trkpt>
      <trkpt lat="45.98762" lon="4.0442">
        <ele>323.471008</ele>
        <time>2019-08-31T07:15:05Z</time>
      </trkpt>
      <trkpt lat="45.98765" lon="4.04425">
        <ele>322.963043</ele>
        <time>2019-08-31T07:15:07Z</time>
      </trkpt>
      <trkpt lat="45.98721" lon="4.04507">
        <ele>319.434998</ele>
        <time>2019-08-31T07:15:22Z</time>
      </trkpt>
      <trkpt lat="45.98677" lon="4.04614">
        <ele>303.621002</ele>
        <time>2019-08-31T07:15:40Z</time>
      </trkpt>
      <trkpt lat="45.98666" lon="4.04654">
        <ele>292.345062</ele>
        <time>2019-08-31T07:15:46Z</time>
      </trkpt>
      <trkpt lat="45.9863" lon="4.04739">
        <ele>280.123993</ele>
        <time>2019-08-31T07:16:00Z</time>
      </trkpt>
      <trkpt lat="45.98624" lon="4.04791">
        <ele>280.677765</ele>
        <time>2019-08-31T07:16:07Z</time>
      </trkpt>
      <trkpt lat="45.98629" lon="4.04863">
        <ele>282.140747</ele>
        <time>2019-08-31T07:16:16Z</time>
      </trkpt>
      <trkpt lat="45.98654" lon="4.04953">
        <ele>315.689362</ele>
        <time>2019-08-31T07:16:28Z</time>
      </trkpt>
      <trkpt lat="45.98665" lon="4.04973">
        <ele>327.078735</ele>
        <time>2019-08-31T07:16:31Z</time>
      </trkpt>
      <trkpt lat="45.98696" lon="4.04997">
        <ele>336.520905</ele>
        <time>2019-08-31T07:16:36Z</time>
      </trkpt>
      <trkpt lat="45.98706" lon="4.04998">
        <ele>336.023651</ele>
        <time>2019-08-31T07:16:38Z</time>
      </trkpt>
      <trkpt lat="45.98713" lon="4.05011">
        <ele>341.012848</ele>
        <time>2019-08-31T07:16:40Z</time>
      </trkpt>
      <trkpt lat="45.98727" lon="4.05017">
        <ele>339.80722</ele>
        <time>2019-08-31T07:16:43Z</time>
      </trkpt>
      <trkpt lat="45.98736" lon="4.0501">
        <ele>334.840698</ele>
        <time>2019-08-31T07:16:45Z</time>
      </trkpt>
      <trkpt lat="45.98752" lon="4.05027">
        <ele>337.841034</ele>
        <time>2019-08-31T07:16:50Z</time>
      </trkpt>
      <trkpt lat="45.9876" lon="4.05023">
        <ele>333.740631</ele>
        <time>2019-08-31T07:16:52Z</time>
      </trkpt>
      <trkpt lat="45.98787" lon="4.0505">
        <ele>334.322144</ele>
        <time>2019-08-31T07:17:02Z</time>
      </trkpt>
      <trkpt lat="45.98799" lon="4.05079">
        <ele>339.402313</ele>
        <time>2019-08-31T07:17:08Z</time>
      </trkpt>
      <trkpt lat="45.9882" lon="4.05111">
        <ele>350.412811</ele>
        <time>2019-08-31T07:17:18Z</time>
      </trkpt>
      <trkpt lat="45.98835" lon="4.05108">
        <ele>348.53476</ele>
        <time>2019-08-31T07:17:24Z</time>
      </trkpt>
      <trkpt lat="45.98855" lon="4.05117">
        <ele>352.131744</ele>
        <time>2019-08-31T07:17:32Z</time>
      </trkpt>
      <trkpt lat="45.98905" lon="4.05106">
        <ele>347.660614</ele>
        <time>2019-08-31T07:17:49Z</time>
      </trkpt>
      <trkpt lat="45.98916" lon="4.05113">
        <ele>348.974365</ele>
        <time>2019-08-31T07:17:54Z</time>
      </trkpt>
      <trkpt lat="45.9893" lon="4.05141">
        <ele>355.846252</ele>
        <time>2019-08-31T07:18:03Z</time>
      </trkpt>
      <trkpt lat="45.98942" lon="4.0515">
        <ele>354.788635</ele>
        <time>2019-08-31T07:18:09Z</time>
      </trkpt>
      <trkpt lat="45.98948" lon="4.05165">
        <ele>354.959839</ele>
        <time>2019-08-31T07:18:15Z</time>
      </trkpt>
      <trkpt lat="45.98951" lon="4.05215">
        <ele>358.868774</ele>
        <time>2019-08-31T07:18:31Z</time>
      </trkpt>
      <trkpt lat="45.98948" lon="4.05234">
        <ele>360.257355</ele>
        <time>2019-08-31T07:18:37Z</time>
      </trkpt>
      <trkpt lat="45.98934" lon="4.05269">
        <ele>364.791351</ele>
        <time>2019-08-31T07:18:49Z</time>
      </trkpt>
      <trkpt lat="45.98928" lon="4.05272">
        <ele>365.282501</ele>
        <time>2019-08-31T07:18:53Z</time>
      </trkpt>
      <trkpt lat="45.98904" lon="4.05253">
        <ele>368.066254</ele>
        <time>2019-08-31T07:19:23Z</time>
      </trkpt>
      <trkpt lat="45.98909" lon="4.05249">
        <ele>367.371246</ele>
        <time>2019-08-31T07:19:29Z</time>
      </trkpt>
      <trkpt lat="45.98918" lon="4.05255">
        <ele>366.436249</ele>
        <time>2019-08-31T07:19:37Z</time>
      </trkpt>
      <trkpt lat="45.98932" lon="4.05247">
        <ele>364.861237</ele>
        <time>2019-08-31T07:19:47Z</time>
      </trkpt>
      <trkpt lat="45.98937" lon="4.05231">
        <ele>363.546356</ele>
        <time>2019-08-31T07:19:58Z</time>
      </trkpt>
      <trkpt lat="45.9893" lon="4.05196">
        <ele>363.4375</ele>
        <time>2019-08-31T07:20:17Z</time>
      </trkpt>
      <trkpt lat="45.98927" lon="4.05196">
        <ele>363.77124</ele>
        <time>2019-08-31T07:20:44Z</time>
      </trkpt>
      <trkpt lat="45.98922" lon="4.05183">
        <ele>362.649994</ele>
        <time>2019-08-31T07:20:51Z</time>
      </trkpt>
      <trkpt lat="45.98899" lon="4.0517">
        <ele>363.42749</ele>
        <time>2019-08-31T07:21:05Z</time>
      </trkpt>
      <trkpt lat="45.98883" lon="4.05168">
        <ele>364.435333</ele>
        <time>2019-08-31T07:21:13Z</time>
      </trkpt>
      <trkpt lat="45.98866" lon="4.0516">
        <ele>363.484863</ele>
        <time>2019-08-31T07:21:45Z</time>
      </trkpt>
      <trkpt lat="45.98794" lon="4.05167">
        <ele>367.30423</ele>
        <time>2019-08-31T07:22:01Z</time>
      </trkpt>
      <trkpt lat="45.9878" lon="4.05158">
        <ele>367.833496</ele>
        <time>2019-08-31T07:22:04Z</time>
      </trkpt>
      <trkpt lat="45.9877" lon="4.0514">
        <ele>367.070435</ele>
        <time>2019-08-31T07:22:07Z</time>
      </trkpt>
      <trkpt lat="45.98752" lon="4.05121">
        <ele>366.959961</ele>
        <time>2019-08-31T07:22:11Z</time>
      </trkpt>
      <trkpt lat="45.98727" lon="4.05114">
        <ele>371.790009</ele>
        <time>2019-08-31T07:22:24Z</time>
      </trkpt>
      <trkpt lat="45.98702" lon="4.05093">
        <ele>372.476776</ele>
        <time>2019-08-31T07:22:41Z</time>
      </trkpt>
      <trkpt lat="45.98697" lon="4.05098">
        <ele>373.178528</ele>
        <time>2019-08-31T07:22:55Z</time>
      </trkpt>
      <trkpt lat="45.98685" lon="4.05091">
        <ele>371.987579</ele>
        <time>2019-08-31T07:23:03Z</time>
      </trkpt>
      <trkpt lat="45.98679" lon="4.05078">
        <ele>369.905487</ele>
        <time>2019-08-31T07:23:09Z</time>
      </trkpt>
      <trkpt lat="45.98674" lon="4.05081">
        <ele>370.3414</ele>
        <time>2019-08-31T07:23:45Z</time>
      </trkpt>
      <trkpt lat="45.9866" lon="4.05124">
        <ele>375.255615</ele>
        <time>2019-08-31T07:24:02Z</time>
      </trkpt>
      <trkpt lat="45.98658" lon="4.05151">
        <ele>377.438507</ele>
        <time>2019-08-31T07:24:08Z</time>
      </trkpt>
      <trkpt lat="45.98648" lon="4.05152">
        <ele>375.1315</ele>
        <time>2019-08-31T07:24:12Z</time>
      </trkpt>
      <trkpt lat="45.98626" lon="4.05134">
        <ele>366.888</ele>
        <time>2019-08-31T07:24:25Z</time>
      </trkpt>
      <trkpt lat="45.98622" lon="4.05118">
        <ele>362.11319</ele>
        <time>2019-08-31T07:24:30Z</time>
      </trkpt>
      <trkpt lat="45.98616" lon="4.05118">
        <ele>360.203888</ele>
        <time>2019-08-31T07:24:33Z</time>
      </trkpt>
      <trkpt lat="45.98606" lon="4.05132">
        <ele>360.999237</ele>
        <time>2019-08-31T07:24:37Z</time>
      </trkpt>
      <trkpt lat="45.98582" lon="4.05128">
        <ele>354.048889</ele>
        <time>2019-08-31T07:24:44Z</time>
      </trkpt>
      <trkpt lat="45.98536" lon="4.05146">
        <ele>360.7052</ele>
        <time>2019-08-31T07:25:47Z</time>
      </trkpt>
      <trkpt lat="45.98527" lon="4.05138">
        <ele>361.02887</ele>
        <time>2019-08-31T07:25:49Z</time>
      </trkpt>
      <trkpt lat="45.98516" lon="4.0512">
        <ele>362.819092</ele>
        <time>2019-08-31T07:25:52Z</time>
      </trkpt>
      <trkpt lat="45.98514" lon="4.05079">
        <ele>361.31189</ele>
        <time>2019-08-31T07:25:57Z</time>
      </trkpt>
      <trkpt lat="45.98523" lon="4.05069">
        <ele>357.230835</ele>
        <time>2019-08-31T07:25:58Z</time>
      </trkpt>
      <trkpt lat="45.9853" lon="4.05025">
        <ele>351.629669</ele>
        <time>2019-08-31T07:26:03Z</time>
      </trkpt>
      <trkpt lat="45.98527" lon="4.05009">
        <ele>351.229797</ele>
        <time>2019-08-31T07:26:05Z</time>
      </trkpt>
      <trkpt lat="45.98504" lon="4.04966">
        <ele>347.783203</ele>
        <time>2019-08-31T07:26:11Z</time>
      </trkpt>
      <trkpt lat="45.98479" lon="4.04943">
        <ele>345.165009</ele>
        <time>2019-08-31T07:26:16Z</time>
      </trkpt>
      <trkpt lat="45.98467" lon="4.0494">
        <ele>345.096252</ele>
        <time>2019-08-31T07:26:18Z</time>
      </trkpt>
      <trkpt lat="45.98453" lon="4.04946">
        <ele>347.956238</ele>
        <time>2019-08-31T07:26:22Z</time>
      </trkpt>
      <trkpt lat="45.98456" lon="4.04945">
        <ele>347.579987</ele>
        <time>2019-08-31T07:26:51Z</time>
      </trkpt>
      <trkpt lat="45.98408" lon="4.04937">
        <ele>348.372131</ele>
        <time>2019-08-31T07:27:44Z</time>
      </trkpt>
      <trkpt lat="45.98379" lon="4.04919">
        <ele>348.058685</ele>
        <time>2019-08-31T07:27:51Z</time>
      </trkpt>
      <trkpt lat="45.98289" lon="4.04778">
        <ele>342.490753</ele>
        <time>2019-08-31T07:28:17Z</time>
      </trkpt>
      <trkpt lat="45.98272" lon="4.04762">
        <ele>342.553314</ele>
        <time>2019-08-31T07:28:21Z</time>
      </trkpt>
      <trkpt lat="45.98244" lon="4.0475">
        <ele>339.740479</ele>
        <time>2019-08-31T07:28:27Z</time>
      </trkpt>
      <trkpt lat="45.98218" lon="4.04755">
        <ele>337.89566</ele>
        <time>2019-08-31T07:28:32Z</time>
      </trkpt>
      <trkpt lat="45.98187" lon="4.04783">
        <ele>337.670074</ele>
        <time>2019-08-31T07:28:39Z</time>
      </trkpt>
      <trkpt lat="45.98169" lon="4.04819">
        <ele>341.732666</ele>
        <time>2019-08-31T07:28:45Z</time>
      </trkpt>
      <trkpt lat="45.98155" lon="4.0483">
        <ele>341.607208</ele>
        <time>2019-08-31T07:28:48Z</time>
      </trkpt>
      <trkpt lat="45.98132" lon="4.04834">
        <ele>338.521515</ele>
        <time>2019-08-31T07:28:52Z</time>
      </trkpt>
      <trkpt lat="45.98116" lon="4.04823">
        <ele>339.149506</ele>
        <time>2019-08-31T07:28:55Z</time>
      </trkpt>
      <trkpt lat="45.98105" lon="4.04805">
        <ele>340.4599</ele>
        <time>2019-08-31T07:28:58Z</time>
      </trkpt>
      <trkpt lat="45.98106" lon="4.04777">
        <ele>341.271271</ele>
        <time>2019-08-31T07:29:01Z</time>
      </trkpt>
      <trkpt lat="45.98115" lon="4.04752">
        <ele>341.546478</ele>
        <time>2019-08-31T07:29:04Z</time>
      </trkpt>
      <trkpt lat="45.98114" lon="4.04744">
        <ele>342.789551</ele>
        <time>2019-08-31T07:29:05Z</time>
      </trkpt>
      <trkpt lat="45.98124" lon="4.04729">
        <ele>341.785492</ele>
        <time>2019-08-31T07:29:07Z</time>
      </trkpt>
      <trkpt lat="45.98161" lon="4.04691">
        <ele>337.382507</ele>
        <time>2019-08-31T07:29:13Z</time>
      </trkpt>
      <trkpt lat="45.98193" lon="4.04621">
        <ele>339.439697</ele>
        <time>2019-08-31T07:29:22Z</time>
      </trkpt>
      <trkpt lat="45.98212" lon="4.04598">
        <ele>335.723999</ele>
        <time>2019-08-31T07:29:26Z</time>
      </trkpt>
      <trkpt lat="45.98223" lon="4.04591">
        <ele>332.413116</ele>
        <time>2019-08-31T07:29:28Z</time>
      </trkpt>
      <trkpt lat="45.98249" lon="4.04552">
        <ele>331.132385</ele>
        <time>2019-08-31T07:29:34Z</time>
      </trkpt>
      <trkpt lat="45.98265" lon="4.04509">
        <ele>331.274994</ele>
        <time>2019-08-31T07:29:39Z</time>
      </trkpt>
      <trkpt lat="45.98258" lon="4.04501">
        <ele>335.07251</ele>
        <time>2019-08-31T07:29:40Z</time>
      </trkpt>
      <trkpt lat="45.98261" lon="4.04452">
        <ele>336.843597</ele>
        <time>2019-08-31T07:29:46Z</time>
      </trkpt>
      <trkpt lat="45.98269" lon="4.04434">
        <ele>332.99527</ele>
        <time>2019-08-31T07:29:48Z</time>
      </trkpt>
      <trkpt lat="45.98275" lon="4.04346">
        <ele>326.397125</ele>
        <time>2019-08-31T07:30:00Z</time>
      </trkpt>
      <trkpt lat="45.98273" lon="4.043">
        <ele>321.199188</ele>
        <time>2019-08-31T07:30:06Z</time>
      </trkpt>
      <trkpt lat="45.98257" lon="4.04254">
        <ele>319.357513</ele>
        <time>2019-08-31T07:30:13Z</time>
      </trkpt>
      <trkpt lat="45.98231" lon="4.04226">
        <ele>322.464905</ele>
        <time>2019-08-31T07:30:19Z</time>
      </trkpt>
      <trkpt lat="45.98174" lon="4.04198">
        <ele>328.739441</ele>
        <time>2019-08-31T07:30:31Z</time>
      </trkpt>
      <trkpt lat="45.98165" lon="4.04186">
        <ele>327.460327</ele>
        <time>2019-08-31T07:30:33Z</time>
      </trkpt>
      <trkpt lat="45.98107" lon="4.04135">
        <ele>323.986725</ele>
        <time>2019-08-31T07:30:50Z</time>
      </trkpt>
      <trkpt lat="45.98048" lon="4.04117">
        <ele>329.38501</ele>
        <time>2019-08-31T07:31:04Z</time>
      </trkpt>
      <trkpt lat="45.97941" lon="4.04049">
        <ele>332.222504</ele>
        <time>2019-08-31T07:31:31Z</time>
      </trkpt>
      <trkpt lat="45.97928" lon="4.04044">
        <ele>333.23999</ele>
        <time>2019-08-31T07:31:34Z</time>
      </trkpt>
      <trkpt lat="45.97902" lon="4.04049">
        <ele>335.072968</ele>
        <time>2019-08-31T07:31:41Z</time>
      </trkpt>
      <trkpt lat="45.97872" lon="4.04071">
        <ele>336.922668</ele>
        <time>2019-08-31T07:31:50Z</time>
      </trkpt>
      <trkpt lat="45.97849" lon="4.04082">
        <ele>339.772491</ele>
        <time>2019-08-31T07:31:56Z</time>
      </trkpt>
      <trkpt lat="45.97826" lon="4.04082">
        <ele>340.490417</ele>
        <time>2019-08-31T07:32:01Z</time>
      </trkpt>
      <trkpt lat="45.9781" lon="4.04074">
        <ele>343.017487</ele>
        <time>2019-08-31T07:32:05Z</time>
      </trkpt>
      <trkpt lat="45.9778" lon="4.04043">
        <ele>344.101654</ele>
        <time>2019-08-31T07:32:13Z</time>
      </trkpt>
      <trkpt lat="45.97776" lon="4.04031">
        <ele>343.045654</ele>
        <time>2019-08-31T07:32:15Z</time>
      </trkpt>
      <trkpt lat="45.97777" lon="4.04024">
        <ele>341.182312</ele>
        <time>2019-08-31T07:32:16Z</time>
      </trkpt>
      <trkpt lat="45.97739" lon="4.03915">
        <ele>337.888763</ele>
        <time>2019-08-31T07:32:36Z</time>
      </trkpt>
      <trkpt lat="45.97708" lon="4.03867">
        <ele>339.682922</ele>
        <time>2019-08-31T07:32:47Z</time>
      </trkpt>
      <trkpt lat="45.97676" lon="4.03838">
        <ele>343.555084</ele>
        <time>2019-08-31T07:32:55Z</time>
      </trkpt>
      <trkpt lat="45.97645" lon="4.0378">
        <ele>347.077362</ele>
        <time>2019-08-31T07:33:07Z</time>
      </trkpt>
      <trkpt lat="45.97637" lon="4.0374">
        <ele>348.557526</ele>
        <time>2019-08-31T07:33:14Z</time>
      </trkpt>
      <trkpt lat="45.9764" lon="4.03701">
        <ele>347.345245</ele>
        <time>2019-08-31T07:33:21Z</time>
      </trkpt>
      <trkpt lat="45.97636" lon="4.03669">
        <ele>348.313019</ele>
        <time>2019-08-31T07:33:27Z</time>
      </trkpt>
      <trkpt lat="45.97594" lon="4.03534">
        <ele>355.811188</ele>
        <time>2019-08-31T07:33:55Z</time>
      </trkpt>
      <trkpt lat="45.9759" lon="4.03507">
        <ele>355.326263</ele>
        <time>2019-08-31T07:34:00Z</time>
      </trkpt>
      <trkpt lat="45.97564" lon="4.03429">
        <ele>359.494476</ele>
        <time>2019-08-31T07:34:17Z</time>
      </trkpt>
      <trkpt lat="45.97552" lon="4.03407">
        <ele>358.341064</ele>
        <time>2019-08-31T07:34:23Z</time>
      </trkpt>
      <trkpt lat="45.9754" lon="4.03397">
        <ele>357.626404</ele>
        <time>2019-08-31T07:34:27Z</time>
      </trkpt>
      <trkpt lat="45.97518" lon="4.03392">
        <ele>357.733215</ele>
        <time>2019-08-31T07:34:33Z</time>
      </trkpt>
      <trkpt lat="45.97499" lon="4.03397">
        <ele>356.728821</ele>
        <time>2019-08-31T07:34:38Z</time>
      </trkpt>
      <trkpt lat="45.97473" lon="4.0342">
        <ele>358.216553</ele>
        <time>2019-08-31T07:34:45Z</time>
      </trkpt>
      <trkpt lat="45.97466" lon="4.03431">
        <ele>356.974487</ele>
        <time>2019-08-31T07:34:47Z</time>
      </trkpt>
      <trkpt lat="45.97452" lon="4.03484">
        <ele>358.404602</ele>
        <time>2019-08-31T07:34:55Z</time>
      </trkpt>
      <trkpt lat="45.97452" lon="4.0352">
        <ele>358.30069</ele>
        <time>2019-08-31T07:35:00Z</time>
      </trkpt>
      <trkpt lat="45.97463" lon="4.03559">
        <ele>359.883759</ele>
        <time>2019-08-31T07:35:06Z</time>
      </trkpt>
      <trkpt lat="45.97499" lon="4.03638">
        <ele>364.567505</ele>
        <time>2019-08-31T07:35:19Z</time>
      </trkpt>
      <trkpt lat="45.97515" lon="4.03655">
        <ele>367.287506</ele>
        <time>2019-08-31T07:35:23Z</time>
      </trkpt>
      <trkpt lat="45.97549" lon="4.03667">
        <ele>367.787781</ele>
        <time>2019-08-31T07:35:30Z</time>
      </trkpt>
      <trkpt lat="45.97566" lon="4.0369">
        <ele>367.477783</ele>
        <time>2019-08-31T07:35:35Z</time>
      </trkpt>
      <trkpt lat="45.97567" lon="4.0372">
        <ele>367.732971</ele>
        <time>2019-08-31T07:35:40Z</time>
      </trkpt>
      <trkpt lat="45.97558" lon="4.03742">
        <ele>369.269989</ele>
        <time>2019-08-31T07:35:44Z</time>
      </trkpt>
      <trkpt lat="45.97531" lon="4.03771">
        <ele>372.304993</ele>
        <time>2019-08-31T07:35:59Z</time>
      </trkpt>
      <trkpt lat="45.97532" lon="4.03788">
        <ele>373.230011</ele>
        <time>2019-08-31T07:36:05Z</time>
      </trkpt>
      <trkpt lat="45.97528" lon="4.03778">
        <ele>372.860016</ele>
        <time>2019-08-31T07:36:32Z</time>
      </trkpt>
      <trkpt lat="45.97545" lon="4.03839">
        <ele>375.769989</ele>
        <time>2019-08-31T07:37:18Z</time>
      </trkpt>
      <trkpt lat="45.9754" lon="4.03854">
        <ele>376.945007</ele>
        <time>2019-08-31T07:37:22Z</time>
      </trkpt>
      <trkpt lat="45.97521" lon="4.03866">
        <ele>378.584991</ele>
        <time>2019-08-31T07:37:30Z</time>
      </trkpt>
      <trkpt lat="45.97504" lon="4.03887">
        <ele>377.759766</ele>
        <time>2019-08-31T07:37:40Z</time>
      </trkpt>
      <trkpt lat="45.97532" lon="4.0399">
        <ele>377.861481</ele>
        <time>2019-08-31T07:38:12Z</time>
      </trkpt>
      <trkpt lat="45.97551" lon="4.04036">
        <ele>379.52887</ele>
        <time>2019-08-31T07:38:25Z</time>
      </trkpt>
      <trkpt lat="45.97576" lon="4.04079">
        <ele>380.605865</ele>
        <time>2019-08-31T07:38:38Z</time>
      </trkpt>
      <trkpt lat="45.97623" lon="4.04207">
        <ele>382.907684</ele>
        <time>2019-08-31T07:39:13Z</time>
      </trkpt>
      <trkpt lat="45.97625" lon="4.04226">
        <ele>383.490906</ele>
        <time>2019-08-31T07:39:17Z</time>
      </trkpt>
      <trkpt lat="45.97619" lon="4.04231">
        <ele>383.664581</ele>
        <time>2019-08-31T07:39:19Z</time>
      </trkpt>
      <trkpt lat="45.97535" lon="4.04152">
        <ele>377.967407</ele>
        <time>2019-08-31T07:39:33Z</time>
      </trkpt>
      <trkpt lat="45.97492" lon="4.04121">
        <ele>373.490143</ele>
        <time>2019-08-31T07:39:39Z</time>
      </trkpt>
      <trkpt lat="45.97443" lon="4.04104">
        <ele>368.193787</ele>
        <time>2019-08-31T07:39:45Z</time>
      </trkpt>
      <trkpt lat="45.97361" lon="4.04104">
        <ele>362.535645</ele>
        <time>2019-08-31T07:39:54Z</time>
      </trkpt>
      <trkpt lat="45.97248" lon="4.04119">
        <ele>355.038116</ele>
        <time>2019-08-31T07:40:06Z</time>
      </trkpt>
      <trkpt lat="45.97233" lon="4.04126">
        <ele>354.678528</ele>
        <time>2019-08-31T07:40:08Z</time>
      </trkpt>
      <trkpt lat="45.97204" lon="4.04157">
        <ele>353.99411</ele>
        <time>2019-08-31T07:40:12Z</time>
      </trkpt>
      <trkpt lat="45.9718" lon="4.04207">
        <ele>346.342499</ele>
        <time>2019-08-31T07:40:17Z</time>
      </trkpt>
      <trkpt lat="45.97124" lon="4.04393">
        <ele>335.832245</ele>
        <time>2019-08-31T07:40:32Z</time>
      </trkpt>
      <trkpt lat="45.97091" lon="4.04466">
        <ele>325.087128</ele>
        <time>2019-08-31T07:40:38Z</time>
      </trkpt>
      <trkpt lat="45.97082" lon="4.04475">
        <ele>323.157837</ele>
        <time>2019-08-31T07:40:39Z</time>
      </trkpt>
      <trkpt lat="45.97078" lon="4.04489">
        <ele>322.127533</ele>
        <time>2019-08-31T07:40:40Z</time>
      </trkpt>
      <trkpt lat="45.97047" lon="4.04511">
        <ele>319.453796</ele>
        <time>2019-08-31T07:40:43Z</time>
      </trkpt>
      <trkpt lat="45.97039" lon="4.04501">
        <ele>320.703857</ele>
        <time>2019-08-31T07:40:44Z</time>
      </trkpt>
      <trkpt lat="45.97015" lon="4.04486">
        <ele>325.329041</ele>
        <time>2019-08-31T07:40:47Z</time>
      </trkpt>
      <trkpt lat="45.97006" lon="4.0447">
        <ele>328.228241</ele>
        <time>2019-08-31T07:40:49Z</time>
      </trkpt>
      <trkpt lat="45.96993" lon="4.04411">
        <ele>334.977173</ele>
        <time>2019-08-31T07:41:01Z</time>
      </trkpt>
      <trkpt lat="45.96978" lon="4.04383">
        <ele>342.192871</ele>
        <time>2019-08-31T07:41:07Z</time>
      </trkpt>
      <trkpt lat="45.9698" lon="4.04376">
        <ele>341.929199</ele>
        <time>2019-08-31T07:41:09Z</time>
      </trkpt>
      <trkpt lat="45.96966" lon="4.04312">
        <ele>348.03363</ele>
        <time>2019-08-31T07:41:31Z</time>
      </trkpt>
      <trkpt lat="45.9696" lon="4.04302">
        <ele>349.2146</ele>
        <time>2019-08-31T07:41:35Z</time>
      </trkpt>
      <trkpt lat="45.96888" lon="4.04253">
        <ele>353.173828</ele>
        <time>2019-08-31T07:42:50Z</time>
      </trkpt>
      <trkpt lat="45.96861" lon="4.04256">
        <ele>355.420013</ele>
        <time>2019-08-31T07:43:02Z</time>
      </trkpt>
      <trkpt lat="45.96835" lon="4.04253">
        <ele>356.309998</ele>
        <time>2019-08-31T07:43:16Z</time>
      </trkpt>
      <trkpt lat="45.96799" lon="4.04266">
        <ele>358.454102</ele>
        <time>2019-08-31T07:43:40Z</time>
      </trkpt>
      <trkpt lat="45.96776" lon="4.04281">
        <ele>361.390564</ele>
        <time>2019-08-31T07:43:54Z</time>
      </trkpt>
      <trkpt lat="45.96746" lon="4.04282">
        <ele>363.185486</ele>
        <time>2019-08-31T07:44:14Z</time>
      </trkpt>
      <trkpt lat="45.96735" lon="4.04265">
        <ele>361.814056</ele>
        <time>2019-08-31T07:44:25Z</time>
      </trkpt>
      <trkpt lat="45.96733" lon="4.04241">
        <ele>359.053467</ele>
        <time>2019-08-31T07:44:47Z</time>
      </trkpt>
      <trkpt lat="45.96738" lon="4.04225">
        <ele>357.483002</ele>
        <time>2019-08-31T07:45:23Z</time>
      </trkpt>
      <trkpt lat="45.96733" lon="4.04211">
        <ele>357.889923</ele>
        <time>2019-08-31T07:45:27Z</time>
      </trkpt>
      <trkpt lat="45.96735" lon="4.04202">
        <ele>357.897949</ele>
        <time>2019-08-31T07:45:34Z</time>
      </trkpt>
      <trkpt lat="45.9674" lon="4.04197">
        <ele>357.720001</ele>
        <time>2019-08-31T07:45:42Z</time>
      </trkpt>
      <trkpt lat="45.96739" lon="4.04193">
        <ele>357.79834</ele>
        <time>2019-08-31T07:45:55Z</time>
      </trkpt>
      <trkpt lat="45.96731" lon="4.04195">
        <ele>358.11203</ele>
        <time>2019-08-31T07:46:12Z</time>
      </trkpt>
      <trkpt lat="45.96737" lon="4.04192">
        <ele>357.897003</ele>
        <time>2019-08-31T07:46:35Z</time>
      </trkpt>
      <trkpt lat="45.96749" lon="4.04199">
        <ele>357.203766</ele>
        <time>2019-08-31T07:46:47Z</time>
      </trkpt>
      <trkpt lat="45.96786" lon="4.04192">
        <ele>354.880005</ele>
        <time>2019-08-31T07:47:14Z</time>
      </trkpt>
      <trkpt lat="45.9681" lon="4.04198">
        <ele>353.051788</ele>
        <time>2019-08-31T07:47:24Z</time>
      </trkpt>
      <trkpt lat="45.96834" lon="4.04189">
        <ele>350.572876</ele>
        <time>2019-08-31T07:47:32Z</time>
      </trkpt>
      <trkpt lat="45.96859" lon="4.04147">
        <ele>349.324677</ele>
        <time>2019-08-31T07:47:50Z</time>
      </trkpt>
      <trkpt lat="45.96885" lon="4.04126">
        <ele>347.518036</ele>
        <time>2019-08-31T07:48:49Z</time>
      </trkpt>
      <trkpt lat="45.96915" lon="4.04112">
        <ele>343.640991</ele>
        <time>2019-08-31T07:49:00Z</time>
      </trkpt>
      <trkpt lat="45.96915" lon="4.04093">
        <ele>344.800629</ele>
        <time>2019-08-31T07:49:05Z</time>
      </trkpt>
      <trkpt lat="45.96911" lon="4.04087">
        <ele>345.754303</ele>
        <time>2019-08-31T07:49:07Z</time>
      </trkpt>
      <trkpt lat="45.96878" lon="4.04079">
        <ele>352.738007</ele>
        <time>2019-08-31T07:49:23Z</time>
      </trkpt>
      <trkpt lat="45.96853" lon="4.04049">
        <ele>359.631744</ele>
        <time>2019-08-31T07:49:50Z</time>
      </trkpt>
      <trkpt lat="45.96839" lon="4.04013">
        <ele>364.500702</ele>
        <time>2019-08-31T07:50:12Z</time>
      </trkpt>
      <trkpt lat="45.96833" lon="4.03985">
        <ele>367.099976</ele>
        <time>2019-08-31T07:50:22Z</time>
      </trkpt>
      <trkpt lat="45.96837" lon="4.03978">
        <ele>367.076263</ele>
        <time>2019-08-31T07:50:27Z</time>
      </trkpt>
      <trkpt lat="45.9684" lon="4.03979">
        <ele>366.605743</ele>
        <time>2019-08-31T07:50:30Z</time>
      </trkpt>
      <trkpt lat="45.96837" lon="4.03978">
        <ele>366.995819</ele>
        <time>2019-08-31T07:50:40Z</time>
      </trkpt>
      <trkpt lat="45.96854" lon="4.0399">
        <ele>364.410797</ele>
        <time>2019-08-31T07:51:34Z</time>
      </trkpt>
      <trkpt lat="45.96923" lon="4.03985">
        <ele>354.054504</ele>
        <time>2019-08-31T07:51:52Z</time>
      </trkpt>
      <trkpt lat="45.96933" lon="4.03978">
        <ele>351.096558</ele>
        <time>2019-08-31T07:51:55Z</time>
      </trkpt>
      <trkpt lat="45.96931" lon="4.03981">
        <ele>351.88324</ele>
        <time>2019-08-31T07:52:10Z</time>
      </trkpt>
      <trkpt lat="45.96926" lon="4.0396">
        <ele>354.202057</ele>
        <time>2019-08-31T07:52:24Z</time>
      </trkpt>
      <trkpt lat="45.96905" lon="4.03923">
        <ele>360.998749</ele>
        <time>2019-08-31T07:52:41Z</time>
      </trkpt>
      <trkpt lat="45.96904" lon="4.03914">
        <ele>361.782196</ele>
        <time>2019-08-31T07:52:45Z</time>
      </trkpt>
      <trkpt lat="45.96897" lon="4.03905">
        <ele>364.670166</ele>
        <time>2019-08-31T07:53:15Z</time>
      </trkpt>
      <trkpt lat="45.96887" lon="4.03879">
        <ele>369.475189</ele>
        <time>2019-08-31T07:53:43Z</time>
      </trkpt>
      <trkpt lat="45.9689" lon="4.03811">
        <ele>372.539215</ele>
        <time>2019-08-31T07:54:07Z</time>
      </trkpt>
      <trkpt lat="45.96892" lon="4.0382">
        <ele>370.631317</ele>
        <time>2019-08-31T07:55:08Z</time>
      </trkpt>
      <trkpt lat="45.96908" lon="4.03737">
        <ele>365.993256</ele>
        <time>2019-08-31T07:55:30Z</time>
      </trkpt>
      <trkpt lat="45.96925" lon="4.0371">
        <ele>360.505615</ele>
        <time>2019-08-31T07:55:39Z</time>
      </trkpt>
      <trkpt lat="45.96923" lon="4.03704">
        <ele>360.901825</ele>
        <time>2019-08-31T07:55:59Z</time>
      </trkpt>
      <trkpt lat="45.9687" lon="4.0365">
        <ele>368.076752</ele>
        <time>2019-08-31T07:56:56Z</time>
      </trkpt>
      <trkpt lat="45.96838" lon="4.03644">
        <ele>373.819</ele>
        <time>2019-08-31T07:58:51Z</time>
      </trkpt>
      <trkpt lat="45.96833" lon="4.03638">
        <ele>373.447876</ele>
        <time>2019-08-31T07:58:56Z</time>
      </trkpt>
      <trkpt lat="45.96788" lon="4.0362">
        <ele>375.324036</ele>
        <time>2019-08-31T07:59:29Z</time>
      </trkpt>
      <trkpt lat="45.96759" lon="4.03623">
        <ele>378.657898</ele>
        <time>2019-08-31T07:59:47Z</time>
      </trkpt>
      <trkpt lat="45.96748" lon="4.03633">
        <ele>382.166626</ele>
        <time>2019-08-31T07:59:56Z</time>
      </trkpt>
      <trkpt lat="45.96745" lon="4.03661">
        <ele>387.79126</ele>
        <time>2019-08-31T08:00:11Z</time>
      </trkpt>
      <trkpt lat="45.96738" lon="4.0368">
        <ele>390.502502</ele>
        <time>2019-08-31T08:01:21Z</time>
      </trkpt>
      <trkpt lat="45.96699" lon="4.03688">
        <ele>395.549927</ele>
        <time>2019-08-31T08:01:48Z</time>
      </trkpt>
      <trkpt lat="45.96652" lon="4.03773">
        <ele>402.772308</ele>
        <time>2019-08-31T08:02:30Z</time>
      </trkpt>
      <trkpt lat="45.96575" lon="4.03864">
        <ele>409.102509</ele>
        <time>2019-08-31T08:03:20Z</time>
      </trkpt>
      <trkpt lat="45.96549" lon="4.0388">
        <ele>411.599792</ele>
        <time>2019-08-31T08:03:34Z</time>
      </trkpt>
      <trkpt lat="45.96535" lon="4.03883">
        <ele>413.233612</ele>
        <time>2019-08-31T08:03:42Z</time>
      </trkpt>
      <trkpt lat="45.96496" lon="4.03875">
        <ele>418.444214</ele>
        <time>2019-08-31T08:04:04Z</time>
      </trkpt>
      <trkpt lat="45.96481" lon="4.03863">
        <ele>421.697968</ele>
        <time>2019-08-31T08:04:14Z</time>
      </trkpt>
      <trkpt lat="45.96461" lon="4.03856">
        <ele>423.885773</ele>
        <time>2019-08-31T08:04:26Z</time>
      </trkpt>
      <trkpt lat="45.96408" lon="4.03851">
        <ele>427.030365</ele>
        <time>2019-08-31T08:04:54Z</time>
      </trkpt>
      <trkpt lat="45.96324" lon="4.03827">
        <ele>432.640198</ele>
        <time>2019-08-31T08:05:32Z</time>
      </trkpt>
      <trkpt lat="45.96291" lon="4.03825">
        <ele>434.533203</ele>
        <time>2019-08-31T08:05:48Z</time>
      </trkpt>
      <trkpt lat="45.96272" lon="4.03829">
        <ele>435.520294</ele>
        <time>2019-08-31T08:05:58Z</time>
      </trkpt>
      <trkpt lat="45.96197" lon="4.03805">
        <ele>441.824829</ele>
        <time>2019-08-31T08:06:34Z</time>
      </trkpt>
      <trkpt lat="45.96071" lon="4.03778">
        <ele>441.235413</ele>
        <time>2019-08-31T08:07:20Z</time>
      </trkpt>
      <trkpt lat="45.96053" lon="4.03766">
        <ele>439.57019</ele>
        <time>2019-08-31T08:07:28Z</time>
      </trkpt>
      <trkpt lat="45.96051" lon="4.03736">
        <ele>439.636261</ele>
        <time>2019-08-31T08:07:36Z</time>
      </trkpt>
      <trkpt lat="45.96027" lon="4.03649">
        <ele>439.246979</ele>
        <time>2019-08-31T08:07:55Z</time>
      </trkpt>
      <trkpt lat="45.96009" lon="4.03564">
        <ele>440.729492</ele>
        <time>2019-08-31T08:08:15Z</time>
      </trkpt>
      <trkpt lat="45.96003" lon="4.03483">
        <ele>442.106232</ele>
        <time>2019-08-31T08:08:32Z</time>
      </trkpt>
      <trkpt lat="45.95998" lon="4.03461">
        <ele>442.051239</ele>
        <time>2019-08-31T08:08:39Z</time>
      </trkpt>
      <trkpt lat="45.95952" lon="4.03408">
        <ele>438.488037</ele>
        <time>2019-08-31T08:08:55Z</time>
      </trkpt>
      <trkpt lat="45.95945" lon="4.03405">
        <ele>437.799988</ele>
        <time>2019-08-31T08:08:57Z</time>
      </trkpt>
      <trkpt lat="45.95918" lon="4.03422">
        <ele>434.899994</ele>
        <time>2019-08-31T08:09:04Z</time>
      </trkpt>
      <trkpt lat="45.95901" lon="4.03423">
        <ele>433.024994</ele>
        <time>2019-08-31T08:09:06Z</time>
      </trkpt>
      <trkpt lat="45.95838" lon="4.03444">
        <ele>426.815002</ele>
        <time>2019-08-31T08:09:13Z</time>
      </trkpt>
      <trkpt lat="45.95786" lon="4.03447">
        <ele>423.670013</ele>
        <time>2019-08-31T08:09:20Z</time>
      </trkpt>
      <trkpt lat="45.95777" lon="4.03452">
        <ele>423.344238</ele>
        <time>2019-08-31T08:09:21Z</time>
      </trkpt>
      <trkpt lat="45.95771" lon="4.03449">
        <ele>422.960083</ele>
        <time>2019-08-31T08:09:22Z</time>
      </trkpt>
      <trkpt lat="45.95749" lon="4.03463">
        <ele>422.247131</ele>
        <time>2019-08-31T08:09:25Z</time>
      </trkpt>
      <trkpt lat="45.95742" lon="4.03462">
        <ele>421.841766</ele>
        <time>2019-08-31T08:09:26Z</time>
      </trkpt>
      <trkpt lat="45.95691" lon="4.03518">
        <ele>423.088318</ele>
        <time>2019-08-31T08:09:35Z</time>
      </trkpt>
      <trkpt lat="45.95681" lon="4.03544">
        <ele>425.172058</ele>
        <time>2019-08-31T08:09:41Z</time>
      </trkpt>
      <trkpt lat="45.9567" lon="4.03549">
        <ele>425.552521</ele>
        <time>2019-08-31T08:09:43Z</time>
      </trkpt>
      <trkpt lat="45.95655" lon="4.03578">
        <ele>428.442505</ele>
        <time>2019-08-31T08:09:51Z</time>
      </trkpt>
      <trkpt lat="45.95639" lon="4.03593">
        <ele>429.693756</ele>
        <time>2019-08-31T08:09:57Z</time>
      </trkpt>
      <trkpt lat="45.95604" lon="4.03601">
        <ele>428.522797</ele>
        <time>2019-08-31T08:10:09Z</time>
      </trkpt>
      <trkpt lat="45.95579" lon="4.03615">
        <ele>427.636841</ele>
        <time>2019-08-31T08:10:18Z</time>
      </trkpt>
      <trkpt lat="45.95546" lon="4.0365">
        <ele>426.81897</ele>
        <time>2019-08-31T08:10:32Z</time>
      </trkpt>
      <trkpt lat="45.95529" lon="4.03701">
        <ele>426.904663</ele>
        <time>2019-08-31T08:10:40Z</time>
      </trkpt>
      <trkpt lat="45.95486" lon="4.03754">
        <ele>424.36499</ele>
        <time>2019-08-31T08:10:52Z</time>
      </trkpt>
      <trkpt lat="45.95464" lon="4.0379">
        <ele>424.709991</ele>
        <time>2019-08-31T08:10:59Z</time>
      </trkpt>
      <trkpt lat="45.9545" lon="4.03801">
        <ele>424.199982</ele>
        <time>2019-08-31T08:11:01Z</time>
      </trkpt>
      <trkpt lat="45.95436" lon="4.03826">
        <ele>424.477448</ele>
        <time>2019-08-31T08:11:05Z</time>
      </trkpt>
      <trkpt lat="45.95421" lon="4.03833">
        <ele>424.072937</ele>
        <time>2019-08-31T08:11:08Z</time>
      </trkpt>
      <trkpt lat="45.95395" lon="4.03857">
        <ele>424.309998</ele>
        <time>2019-08-31T08:11:16Z</time>
      </trkpt>
      <trkpt lat="45.9537" lon="4.03873">
        <ele>424.714355</ele>
        <time>2019-08-31T08:11:27Z</time>
      </trkpt>
      <trkpt lat="45.95336" lon="4.03922">
        <ele>426.266235</ele>
        <time>2019-08-31T08:11:44Z</time>
      </trkpt>
      <trkpt lat="45.95323" lon="4.03951">
        <ele>427.234497</ele>
        <time>2019-08-31T08:11:54Z</time>
      </trkpt>
      <trkpt lat="45.95304" lon="4.03974">
        <ele>428.334991</ele>
        <time>2019-08-31T08:12:06Z</time>
      </trkpt>
      <trkpt lat="45.95286" lon="4.0398">
        <ele>429.368744</ele>
        <time>2019-08-31T08:12:13Z</time>
      </trkpt>
      <trkpt lat="45.95223" lon="4.04038">
        <ele>436.439941</ele>
        <time>2019-08-31T08:12:47Z</time>
      </trkpt>
      <trkpt lat="45.9519" lon="4.04076">
        <ele>441.13501</ele>
        <time>2019-08-31T08:13:05Z</time>
      </trkpt>
      <trkpt lat="45.95141" lon="4.04112">
        <ele>446.705017</ele>
        <time>2019-08-31T08:13:30Z</time>
      </trkpt>
      <trkpt lat="45.95089" lon="4.04126">
        <ele>450.299988</ele>
        <time>2019-08-31T08:13:56Z</time>
      </trkpt>
      <trkpt lat="45.95084" lon="4.04109">
        <ele>449.459991</ele>
        <time>2019-08-31T08:14:02Z</time>
      </trkpt>
      <trkpt lat="45.95068" lon="4.04119">
        <ele>450.540009</ele>
        <time>2019-08-31T08:14:11Z</time>
      </trkpt>
      <trkpt lat="45.95028" lon="4.04128">
        <ele>451.890015</ele>
        <time>2019-08-31T08:14:32Z</time>
      </trkpt>
      <trkpt lat="45.95005" lon="4.0412">
        <ele>451.434998</ele>
        <time>2019-08-31T08:14:44Z</time>
      </trkpt>
      <trkpt lat="45.94953" lon="4.04123">
        <ele>449.244995</ele>
        <time>2019-08-31T08:15:01Z</time>
      </trkpt>
      <trkpt lat="45.94953" lon="4.04138">
        <ele>450.179993</ele>
        <time>2019-08-31T08:15:13Z</time>
      </trkpt>
      <trkpt lat="45.94914" lon="4.04183">
        <ele>449.761353</ele>
        <time>2019-08-31T08:15:32Z</time>
      </trkpt>
      <trkpt lat="45.94862" lon="4.04275">
        <ele>447.660004</ele>
        <time>2019-08-31T08:15:59Z</time>
      </trkpt>
      <trkpt lat="45.94856" lon="4.04273">
        <ele>446.580017</ele>
        <time>2019-08-31T08:16:00Z</time>
      </trkpt>
      <trkpt lat="45.94849" lon="4.04284">
        <ele>446.461853</ele>
        <time>2019-08-31T08:16:02Z</time>
      </trkpt>
      <trkpt lat="45.9479" lon="4.04308">
        <ele>442.684662</ele>
        <time>2019-08-31T08:16:11Z</time>
      </trkpt>
      <trkpt lat="45.94779" lon="4.04321">
        <ele>443.32431</ele>
        <time>2019-08-31T08:16:13Z</time>
      </trkpt>
      <trkpt lat="45.947" lon="4.04361">
        <ele>443.866547</ele>
        <time>2019-08-31T08:16:28Z</time>
      </trkpt>
      <trkpt lat="45.94694" lon="4.0436">
        <ele>443.352142</ele>
        <time>2019-08-31T08:16:30Z</time>
      </trkpt>
      <trkpt lat="45.94689" lon="4.04364">
        <ele>443.261963</ele>
        <time>2019-08-31T08:16:31Z</time>
      </trkpt>
      <trkpt lat="45.94679" lon="4.04362">
        <ele>442.547485</ele>
        <time>2019-08-31T08:16:34Z</time>
      </trkpt>
      <trkpt lat="45.94667" lon="4.04372">
        <ele>442.008423</ele>
        <time>2019-08-31T08:16:36Z</time>
      </trkpt>
      <trkpt lat="45.94667" lon="4.04363">
        <ele>441.71521</ele>
        <time>2019-08-31T08:16:37Z</time>
      </trkpt>
      <trkpt lat="45.9466" lon="4.04366">
        <ele>441.345337</ele>
        <time>2019-08-31T08:16:38Z</time>
      </trkpt>
      <trkpt lat="45.94636" lon="4.04353">
        <ele>439.162659</ele>
        <time>2019-08-31T08:16:43Z</time>
      </trkpt>
      <trkpt lat="45.94621" lon="4.04351">
        <ele>437.845001</ele>
        <time>2019-08-31T08:16:45Z</time>
      </trkpt>
      <trkpt lat="45.94574" lon="4.04332">
        <ele>431.574463</ele>
        <time>2019-08-31T08:16:52Z</time>
      </trkpt>
      <trkpt lat="45.94569" lon="4.04335">
        <ele>431.278442</ele>
        <time>2019-08-31T08:16:53Z</time>
      </trkpt>
      <trkpt lat="45.94545" lon="4.04331">
        <ele>428.842377</ele>
        <time>2019-08-31T08:16:56Z</time>
      </trkpt>
      <trkpt lat="45.94518" lon="4.04337">
        <ele>427.247498</ele>
        <time>2019-08-31T08:17:00Z</time>
      </trkpt>
      <trkpt lat="45.94508" lon="4.04344">
        <ele>427.144989</ele>
        <time>2019-08-31T08:17:02Z</time>
      </trkpt>
      <trkpt lat="45.94466" lon="4.04354">
        <ele>424.654205</ele>
        <time>2019-08-31T08:17:09Z</time>
      </trkpt>
      <trkpt lat="45.94442" lon="4.04355">
        <ele>422.227509</ele>
        <time>2019-08-31T08:17:13Z</time>
      </trkpt>
      <trkpt lat="45.944" lon="4.04347">
        <ele>416.364014</ele>
        <time>2019-08-31T08:17:19Z</time>
      </trkpt>
      <trkpt lat="45.94362" lon="4.04361">
        <ele>410.090637</ele>
        <time>2019-08-31T08:17:25Z</time>
      </trkpt>
      <trkpt lat="45.94331" lon="4.04355">
        <ele>406.109985</ele>
        <time>2019-08-31T08:17:29Z</time>
      </trkpt>
      <trkpt lat="45.94304" lon="4.04335">
        <ele>402.340515</ele>
        <time>2019-08-31T08:17:32Z</time>
      </trkpt>
      <trkpt lat="45.94267" lon="4.04291">
        <ele>394.942505</ele>
        <time>2019-08-31T08:17:38Z</time>
      </trkpt>
      <trkpt lat="45.94244" lon="4.04284">
        <ele>390.1875</ele>
        <time>2019-08-31T08:17:41Z</time>
      </trkpt>
      <trkpt lat="45.94218" lon="4.04282">
        <ele>385.257507</ele>
        <time>2019-08-31T08:17:45Z</time>
      </trkpt>
      <trkpt lat="45.94192" lon="4.04304">
        <ele>382.554993</ele>
        <time>2019-08-31T08:17:50Z</time>
      </trkpt>
      <trkpt lat="45.94166" lon="4.04316">
        <ele>383.004761</ele>
        <time>2019-08-31T08:17:54Z</time>
      </trkpt>
      <trkpt lat="45.94152" lon="4.04302">
        <ele>384.931885</ele>
        <time>2019-08-31T08:17:57Z</time>
      </trkpt>
      <trkpt lat="45.94157" lon="4.0429">
        <ele>384.006409</ele>
        <time>2019-08-31T08:18:10Z</time>
      </trkpt>
      <trkpt lat="45.94156" lon="4.04271">
        <ele>384.337494</ele>
        <time>2019-08-31T08:18:25Z</time>
      </trkpt>
      <trkpt lat="45.94152" lon="4.04264">
        <ele>385.279999</ele>
        <time>2019-08-31T08:18:31Z</time>
      </trkpt>
      <trkpt lat="45.9415" lon="4.04241">
        <ele>386.380005</ele>
        <time>2019-08-31T08:18:45Z</time>
      </trkpt>
      <trkpt lat="45.94152" lon="4.04232">
        <ele>386.26001</ele>
        <time>2019-08-31T08:18:50Z</time>
      </trkpt>
      <trkpt lat="45.94149" lon="4.04213">
        <ele>387.414276</ele>
        <time>2019-08-31T08:19:01Z</time>
      </trkpt>
      <trkpt lat="45.94151" lon="4.042">
        <ele>387.460144</ele>
        <time>2019-08-31T08:19:10Z</time>
      </trkpt>
      <trkpt lat="45.94133" lon="4.04167">
        <ele>391.928375</ele>
        <time>2019-08-31T08:19:30Z</time>
      </trkpt>
      <trkpt lat="45.94115" lon="4.04154">
        <ele>395.977203</ele>
        <time>2019-08-31T08:19:44Z</time>
      </trkpt>
      <trkpt lat="45.94084" lon="4.04116">
        <ele>401.127502</ele>
        <time>2019-08-31T08:20:19Z</time>
      </trkpt>
      <trkpt lat="45.94079" lon="4.04116">
        <ele>401.787506</ele>
        <time>2019-08-31T08:20:46Z</time>
      </trkpt>
      <trkpt lat="45.94031" lon="4.04039">
        <ele>408.244476</ele>
        <time>2019-08-31T08:21:18Z</time>
      </trkpt>
      <trkpt lat="45.9402" lon="4.0401">
        <ele>409.636078</ele>
        <time>2019-08-31T08:21:28Z</time>
      </trkpt>
      <trkpt lat="45.94008" lon="4.03958">
        <ele>410.628235</ele>
        <time>2019-08-31T08:21:48Z</time>
      </trkpt>
      <trkpt lat="45.94004" lon="4.03901">
        <ele>410.201263</ele>
        <time>2019-08-31T08:22:03Z</time>
      </trkpt>
      <trkpt lat="45.93981" lon="4.03805">
        <ele>407.356262</ele>
        <time>2019-08-31T08:22:23Z</time>
      </trkpt>
      <trkpt lat="45.9393" lon="4.03698">
        <ele>404.303101</ele>
        <time>2019-08-31T08:22:54Z</time>
      </trkpt>
      <trkpt lat="45.93924" lon="4.03622">
        <ele>400.125275</ele>
        <time>2019-08-31T08:23:08Z</time>
      </trkpt>
      <trkpt lat="45.93928" lon="4.03604">
        <ele>398.412018</ele>
        <time>2019-08-31T08:23:11Z</time>
      </trkpt>
      <trkpt lat="45.93924" lon="4.03582">
        <ele>398.487457</ele>
        <time>2019-08-31T08:23:14Z</time>
      </trkpt>
      <trkpt lat="45.93884" lon="4.03521">
        <ele>401.823822</ele>
        <time>2019-08-31T08:23:34Z</time>
      </trkpt>
      <trkpt lat="45.9385" lon="4.035">
        <ele>406.529449</ele>
        <time>2019-08-31T08:23:48Z</time>
      </trkpt>
      <trkpt lat="45.93842" lon="4.0349">
        <ele>407.256012</ele>
        <time>2019-08-31T08:23:51Z</time>
      </trkpt>
      <trkpt lat="45.93839" lon="4.03462">
        <ele>406.352814</ele>
        <time>2019-08-31T08:24:02Z</time>
      </trkpt>
      <trkpt lat="45.93827" lon="4.03436">
        <ele>408.06665</ele>
        <time>2019-08-31T08:24:15Z</time>
      </trkpt>
      <trkpt lat="45.93822" lon="4.03409">
        <ele>408.079315</ele>
        <time>2019-08-31T08:24:29Z</time>
      </trkpt>
      <trkpt lat="45.93817" lon="4.03403">
        <ele>408.81955</ele>
        <time>2019-08-31T08:24:35Z</time>
      </trkpt>
      <trkpt lat="45.93809" lon="4.03404">
        <ele>410.258759</ele>
        <time>2019-08-31T08:24:47Z</time>
      </trkpt>
      <trkpt lat="45.93807" lon="4.034">
        <ele>410.389313</ele>
        <time>2019-08-31T08:24:53Z</time>
      </trkpt>
      <trkpt lat="45.93819" lon="4.0337">
        <ele>407.281799</ele>
        <time>2019-08-31T08:25:05Z</time>
      </trkpt>
      <trkpt lat="45.93817" lon="4.03361">
        <ele>406.727234</ele>
        <time>2019-08-31T08:25:19Z</time>
      </trkpt>
      <trkpt lat="45.93797" lon="4.03401">
        <ele>412.417999</ele>
        <time>2019-08-31T08:26:26Z</time>
      </trkpt>
      <trkpt lat="45.93789" lon="4.03463">
        <ele>419.674805</ele>
        <time>2019-08-31T08:26:57Z</time>
      </trkpt>
      <trkpt lat="45.93791" lon="4.03493">
        <ele>422.749786</ele>
        <time>2019-08-31T08:27:07Z</time>
      </trkpt>
      <trkpt lat="45.93801" lon="4.03523">
        <ele>422.627411</ele>
        <time>2019-08-31T08:27:17Z</time>
      </trkpt>
      <trkpt lat="45.9382" lon="4.03636">
        <ele>423.480499</ele>
        <time>2019-08-31T08:27:47Z</time>
      </trkpt>
      <trkpt lat="45.93829" lon="4.03734">
        <ele>425.006195</ele>
        <time>2019-08-31T08:28:16Z</time>
      </trkpt>
      <trkpt lat="45.93828" lon="4.0382">
        <ele>426.787506</ele>
        <time>2019-08-31T08:28:48Z</time>
      </trkpt>
      <trkpt lat="45.93825" lon="4.03837">
        <ele>427.333282</ele>
        <time>2019-08-31T08:28:54Z</time>
      </trkpt>
      <trkpt lat="45.93794" lon="4.03901">
        <ele>430.134796</ele>
        <time>2019-08-31T08:29:22Z</time>
      </trkpt>
      <trkpt lat="45.93743" lon="4.04139">
        <ele>437.074585</ele>
        <time>2019-08-31T08:30:24Z</time>
      </trkpt>
      <trkpt lat="45.93735" lon="4.04164">
        <ele>438.623383</ele>
        <time>2019-08-31T08:30:29Z</time>
      </trkpt>
      <trkpt lat="45.93697" lon="4.04239">
        <ele>440.470428</ele>
        <time>2019-08-31T08:30:50Z</time>
      </trkpt>
      <trkpt lat="45.93686" lon="4.04276">
        <ele>441.609619</ele>
        <time>2019-08-31T08:30:58Z</time>
      </trkpt>
      <trkpt lat="45.93679" lon="4.04318">
        <ele>443.400238</ele>
        <time>2019-08-31T08:31:09Z</time>
      </trkpt>
      <trkpt lat="45.93671" lon="4.04337">
        <ele>443.929962</ele>
        <time>2019-08-31T08:31:18Z</time>
      </trkpt>
      <trkpt lat="45.93601" lon="4.04378">
        <ele>446.668488</ele>
        <time>2019-08-31T08:32:29Z</time>
      </trkpt>
      <trkpt lat="45.93598" lon="4.04386">
        <ele>447.322052</ele>
        <time>2019-08-31T08:32:35Z</time>
      </trkpt>
      <trkpt lat="45.93593" lon="4.04386">
        <ele>447.560242</ele>
        <time>2019-08-31T08:32:55Z</time>
      </trkpt>
      <trkpt lat="45.93573" lon="4.04312">
        <ele>441.960632</ele>
        <time>2019-08-31T08:33:44Z</time>
      </trkpt>
      <trkpt lat="45.9357" lon="4.04275">
        <ele>437.951508</ele>
        <time>2019-08-31T08:33:49Z</time>
      </trkpt>
      <trkpt lat="45.93576" lon="4.04234">
        <ele>434.433319</ele>
        <time>2019-08-31T08:35:23Z</time>
      </trkpt>
      <trkpt lat="45.93535" lon="4.04207">
        <ele>426.628387</ele>
        <time>2019-08-31T08:35:42Z</time>
      </trkpt>
      <trkpt lat="45.93476" lon="4.04195">
        <ele>409.904694</ele>
        <time>2019-08-31T08:35:53Z</time>
      </trkpt>
      <trkpt lat="45.93425" lon="4.042">
        <ele>400.593201</ele>
        <time>2019-08-31T08:36:04Z</time>
      </trkpt>
      <trkpt lat="45.93395" lon="4.04191">
        <ele>392.065002</ele>
        <time>2019-08-31T08:36:09Z</time>
      </trkpt>
      <trkpt lat="45.93391" lon="4.04197">
        <ele>392.149384</ele>
        <time>2019-08-31T08:36:10Z</time>
      </trkpt>
      <trkpt lat="45.93378" lon="4.04199">
        <ele>389.606537</ele>
        <time>2019-08-31T08:36:12Z</time>
      </trkpt>
      <trkpt lat="45.93337" lon="4.0424">
        <ele>387.377655</ele>
        <time>2019-08-31T08:36:20Z</time>
      </trkpt>
      <trkpt lat="45.93332" lon="4.04236">
        <ele>385.524567</ele>
        <time>2019-08-31T08:36:21Z</time>
      </trkpt>
      <trkpt lat="45.93332" lon="4.04242">
        <ele>386.464264</ele>
        <time>2019-08-31T08:36:22Z</time>
      </trkpt>
      <trkpt lat="45.93328" lon="4.0424">
        <ele>384.928162</ele>
        <time>2019-08-31T08:36:24Z</time>
      </trkpt>
      <trkpt lat="45.93328" lon="4.04246">
        <ele>386.072388</ele>
        <time>2019-08-31T08:36:25Z</time>
      </trkpt>
      <trkpt lat="45.93317" lon="4.04229">
        <ele>382.965302</ele>
        <time>2019-08-31T08:36:29Z</time>
      </trkpt>
      <trkpt lat="45.93311" lon="4.04212">
        <ele>380.657593</ele>
        <time>2019-08-31T08:36:33Z</time>
      </trkpt>
      <trkpt lat="45.93298" lon="4.04202">
        <ele>379.326813</ele>
        <time>2019-08-31T08:36:37Z</time>
      </trkpt>
      <trkpt lat="45.93295" lon="4.04185">
        <ele>376.40448</ele>
        <time>2019-08-31T08:36:43Z</time>
      </trkpt>
      <trkpt lat="45.93284" lon="4.04183">
        <ele>376.054993</ele>
        <time>2019-08-31T08:36:48Z</time>
      </trkpt>
      <trkpt lat="45.93264" lon="4.04154">
        <ele>372.725006</ele>
        <time>2019-08-31T08:37:16Z</time>
      </trkpt>
      <trkpt lat="45.93247" lon="4.04052">
        <ele>357.473724</ele>
        <time>2019-08-31T08:37:47Z</time>
      </trkpt>
      <trkpt lat="45.9324" lon="4.0403">
        <ele>354.591522</ele>
        <time>2019-08-31T08:37:50Z</time>
      </trkpt>
      <trkpt lat="45.93215" lon="4.04003">
        <ele>350.763062</ele>
        <time>2019-08-31T08:37:54Z</time>
      </trkpt>
      <trkpt lat="45.93202" lon="4.03976">
        <ele>347.122498</ele>
        <time>2019-08-31T08:38:02Z</time>
      </trkpt>
      <trkpt lat="45.9319" lon="4.03976">
        <ele>347.054199</ele>
        <time>2019-08-31T08:38:09Z</time>
      </trkpt>
      <trkpt lat="45.93187" lon="4.03972">
        <ele>345.862885</ele>
        <time>2019-08-31T08:38:11Z</time>
      </trkpt>
      <trkpt lat="45.93186" lon="4.03939">
        <ele>340.913422</ele>
        <time>2019-08-31T08:38:16Z</time>
      </trkpt>
      <trkpt lat="45.93194" lon="4.03913">
        <ele>338.198883</ele>
        <time>2019-08-31T08:38:19Z</time>
      </trkpt>
      <trkpt lat="45.93217" lon="4.03879">
        <ele>332.508118</ele>
        <time>2019-08-31T08:38:28Z</time>
      </trkpt>
      <trkpt lat="45.93228" lon="4.03885">
        <ele>332.626556</ele>
        <time>2019-08-31T08:38:39Z</time>
      </trkpt>
      <trkpt lat="45.93247" lon="4.03906">
        <ele>335.403717</ele>
        <time>2019-08-31T08:38:48Z</time>
      </trkpt>
      <trkpt lat="45.93272" lon="4.03901">
        <ele>336.481689</ele>
        <time>2019-08-31T08:38:54Z</time>
      </trkpt>
      <trkpt lat="45.93289" lon="4.03875">
        <ele>334.685211</ele>
        <time>2019-08-31T08:38:56Z</time>
      </trkpt>
      <trkpt lat="45.93295" lon="4.03834">
        <ele>330.733917</ele>
        <time>2019-08-31T08:39:00Z</time>
      </trkpt>
      <trkpt lat="45.93298" lon="4.03832">
        <ele>331.287506</ele>
        <time>2019-08-31T08:39:01Z</time>
      </trkpt>
      <trkpt lat="45.93307" lon="4.0373">
        <ele>327.115479</ele>
        <time>2019-08-31T08:39:09Z</time>
      </trkpt>
      <trkpt lat="45.93312" lon="4.03711">
        <ele>326.730988</ele>
        <time>2019-08-31T08:39:11Z</time>
      </trkpt>
      <trkpt lat="45.93342" lon="4.03641">
        <ele>324.113312</ele>
        <time>2019-08-31T08:39:21Z</time>
      </trkpt>
      <trkpt lat="45.93413" lon="4.03551">
        <ele>335.613983</ele>
        <time>2019-08-31T08:39:40Z</time>
      </trkpt>
      <trkpt lat="45.93411" lon="4.03531">
        <ele>333.940002</ele>
        <time>2019-08-31T08:39:48Z</time>
      </trkpt>
      <trkpt lat="45.93421" lon="4.03462">
        <ele>333.601013</ele>
        <time>2019-08-31T08:40:11Z</time>
      </trkpt>
      <trkpt lat="45.93415" lon="4.03447">
        <ele>331.483093</ele>
        <time>2019-08-31T08:40:16Z</time>
      </trkpt>
      <trkpt lat="45.93355" lon="4.03393">
        <ele>309.761841</ele>
        <time>2019-08-31T08:40:33Z</time>
      </trkpt>
      <trkpt lat="45.93326" lon="4.03374">
        <ele>300.147491</ele>
        <time>2019-08-31T08:40:39Z</time>
      </trkpt>
      <trkpt lat="45.93316" lon="4.03362">
        <ele>296.79126</ele>
        <time>2019-08-31T08:40:41Z</time>
      </trkpt>
      <trkpt lat="45.93145" lon="4.0324">
        <ele>326.006989</ele>
        <time>2019-08-31T08:41:23Z</time>
      </trkpt>
      <trkpt lat="45.93129" lon="4.03217">
        <ele>332.838013</ele>
        <time>2019-08-31T08:41:28Z</time>
      </trkpt>
      <trkpt lat="45.93118" lon="4.03177">
        <ele>334.2</ele>
        <time>2019-08-31T09:01:11Z</time>
      </trkpt>
      <trkpt lat="45.93116" lon="4.03127">
        <ele>329.03067</ele>
        <time>2019-08-31T09:01:20Z</time>
      </trkpt>
      <trkpt lat="45.93109" lon="4.03087">
        <ele>329.325073</ele>
        <time>2019-08-31T09:01:46Z</time>
      </trkpt>
      <trkpt lat="45.93074" lon="4.02997">
        <ele>333.32251</ele>
        <time>2019-08-31T09:02:39Z</time>
      </trkpt>
      <trkpt lat="45.9299" lon="4.02882">
        <ele>345.563934</ele>
        <time>2019-08-31T09:02:55Z</time>
      </trkpt>
      <trkpt lat="45.92969" lon="4.0284">
        <ele>349.259613</ele>
        <time>2019-08-31T09:03:03Z</time>
      </trkpt>
      <trkpt lat="45.92962" lon="4.02815">
        <ele>351.056458</ele>
        <time>2019-08-31T09:03:30Z</time>
      </trkpt>
      <trkpt lat="45.92954" lon="4.02728">
        <ele>359.062195</ele>
        <time>2019-08-31T09:03:34Z</time>
      </trkpt>
      <trkpt lat="45.92956" lon="4.02715">
        <ele>360.402405</ele>
        <time>2019-08-31T09:03:38Z</time>
      </trkpt>
      <trkpt lat="45.92963" lon="4.0271">
        <ele>361.207916</ele>
        <time>2019-08-31T09:03:52Z</time>
      </trkpt>
      <trkpt lat="45.92988" lon="4.02732">
        <ele>359.231537</ele>
        <time>2019-08-31T09:04:04Z</time>
      </trkpt>
      <trkpt lat="45.93001" lon="4.0276">
        <ele>357.662628</ele>
        <time>2019-08-31T09:04:28Z</time>
      </trkpt>
      <trkpt lat="45.93031" lon="4.02789">
        <ele>356.931122</ele>
        <time>2019-08-31T09:04:37Z</time>
      </trkpt>
      <trkpt lat="45.93054" lon="4.02785">
        <ele>355.386719</ele>
        <time>2019-08-31T09:04:42Z</time>
      </trkpt>
      <trkpt lat="45.93064" lon="4.02772">
        <ele>356.937286</ele>
        <time>2019-08-31T09:04:50Z</time>
      </trkpt>
      <trkpt lat="45.93071" lon="4.02739">
        <ele>360.023895</ele>
        <time>2019-08-31T09:05:44Z</time>
      </trkpt>
      <trkpt lat="45.93083" lon="4.02527">
        <ele>368.784027</ele>
        <time>2019-08-31T09:05:52Z</time>
      </trkpt>
      <trkpt lat="45.93083" lon="4.02495">
        <ele>368.353058</ele>
        <time>2019-08-31T09:06:00Z</time>
      </trkpt>
      <trkpt lat="45.93072" lon="4.02468">
        <ele>368.486725</ele>
        <time>2019-08-31T09:06:06Z</time>
      </trkpt>
      <trkpt lat="45.9306" lon="4.02456">
        <ele>370.012512</ele>
        <time>2019-08-31T09:06:23Z</time>
      </trkpt>
      <trkpt lat="45.9302" lon="4.02434">
        <ele>374.692383</ele>
        <time>2019-08-31T09:06:30Z</time>
      </trkpt>
      <trkpt lat="45.93003" lon="4.02429">
        <ele>376.632813</ele>
        <time>2019-08-31T09:06:47Z</time>
      </trkpt>
      <trkpt lat="45.92957" lon="4.02437">
        <ele>380.742828</ele>
        <time>2019-08-31T09:07:00Z</time>
      </trkpt>
      <trkpt lat="45.9292" lon="4.02432">
        <ele>381.235352</ele>
        <time>2019-08-31T09:07:37Z</time>
      </trkpt>
      <trkpt lat="45.92844" lon="4.02364">
        <ele>386.596863</ele>
        <time>2019-08-31T09:07:47Z</time>
      </trkpt>
      <trkpt lat="45.92827" lon="4.02333">
        <ele>389.768494</ele>
        <time>2019-08-31T09:07:52Z</time>
      </trkpt>
      <trkpt lat="45.92829" lon="4.02311">
        <ele>389.839996</ele>
        <time>2019-08-31T09:07:54Z</time>
      </trkpt>
      <trkpt lat="45.92833" lon="4.02303">
        <ele>389.85437</ele>
        <time>2019-08-31T09:07:58Z</time>
      </trkpt>
      <trkpt lat="45.92845" lon="4.02297">
        <ele>390.310272</ele>
        <time>2019-08-31T09:08:11Z</time>
      </trkpt>
      <trkpt lat="45.92878" lon="4.02308">
        <ele>387.327606</ele>
        <time>2019-08-31T09:08:19Z</time>
      </trkpt>
      <trkpt lat="45.92901" lon="4.02291">
        <ele>388.936615</ele>
        <time>2019-08-31T09:08:23Z</time>
      </trkpt>
      <trkpt lat="45.9291" lon="4.02276">
        <ele>390.117798</ele>
        <time>2019-08-31T09:09:17Z</time>
      </trkpt>
      <trkpt lat="45.9296" lon="4.0208">
        <ele>398.557281</ele>
        <time>2019-08-31T09:09:59Z</time>
      </trkpt>
      <trkpt lat="45.92966" lon="4.02067">
        <ele>399.051788</ele>
        <time>2019-08-31T09:10:12Z</time>
      </trkpt>
      <trkpt lat="45.93005" lon="4.02024">
        <ele>401.404816</ele>
        <time>2019-08-31T09:10:16Z</time>
      </trkpt>
      <trkpt lat="45.93017" lon="4.0202">
        <ele>402.167511</ele>
        <time>2019-08-31T09:10:18Z</time>
      </trkpt>
      <trkpt lat="45.9302" lon="4.02014">
        <ele>402.68454</ele>
        <time>2019-08-31T09:10:35Z</time>
      </trkpt>
      <trkpt lat="45.93024" lon="4.01959">
        <ele>405.252258</ele>
        <time>2019-08-31T09:10:43Z</time>
      </trkpt>
      <trkpt lat="45.93005" lon="4.01946">
        <ele>404.844727</ele>
        <time>2019-08-31T09:11:00Z</time>
      </trkpt>
      <trkpt lat="45.92953" lon="4.01939">
        <ele>404.012817</ele>
        <time>2019-08-31T09:11:11Z</time>
      </trkpt>
      <trkpt lat="45.92922" lon="4.01929">
        <ele>404.803711</ele>
        <time>2019-08-31T09:11:36Z</time>
      </trkpt>
      <trkpt lat="45.92856" lon="4.01824">
        <ele>402.98999</ele>
        <time>2019-08-31T09:11:37Z</time>
      </trkpt>
      <trkpt lat="45.92849" lon="4.01819">
        <ele>403.355011</ele>
        <time>2019-08-31T09:11:39Z</time>
      </trkpt>
      <trkpt lat="45.92844" lon="4.01806">
        <ele>403.005005</ele>
        <time>2019-08-31T09:11:46Z</time>
      </trkpt>
      <trkpt lat="45.92839" lon="4.01759">
        <ele>403.360016</ele>
        <time>2019-08-31T09:11:56Z</time>
      </trkpt>
      <trkpt lat="45.92881" lon="4.01699">
        <ele>399.533752</ele>
        <time>2019-08-31T09:12:01Z</time>
      </trkpt>
      <trkpt lat="45.9289" lon="4.01657">
        <ele>397.282166</ele>
        <time>2019-08-31T09:12:06Z</time>
      </trkpt>
      <trkpt lat="45.9288" lon="4.01608">
        <ele>395.100281</ele>
        <time>2019-08-31T09:12:07Z</time>
      </trkpt>
      <trkpt lat="45.92871" lon="4.01604">
        <ele>395.518402</ele>
        <time>2019-08-31T09:12:10Z</time>
      </trkpt>
      <trkpt lat="45.92862" lon="4.01586">
        <ele>397.049225</ele>
        <time>2019-08-31T09:12:12Z</time>
      </trkpt>
      <trkpt lat="45.92868" lon="4.01574">
        <ele>397.80658</ele>
        <time>2019-08-31T09:12:13Z</time>
      </trkpt>
      <trkpt lat="45.92872" lon="4.01577">
        <ele>397.210022</ele>
        <time>2019-08-31T09:12:15Z</time>
      </trkpt>
      <trkpt lat="45.92881" lon="4.01572">
        <ele>397.269989</ele>
        <time>2019-08-31T09:12:17Z</time>
      </trkpt>
      <trkpt lat="45.92886" lon="4.01575">
        <ele>396.61499</ele>
        <time>2019-08-31T09:12:25Z</time>
      </trkpt>
      <trkpt lat="45.92904" lon="4.01563">
        <ele>396.940002</ele>
        <time>2019-08-31T09:12:31Z</time>
      </trkpt>
      <trkpt lat="45.92916" lon="4.01542">
        <ele>398.635834</ele>
        <time>2019-08-31T09:12:36Z</time>
      </trkpt>
      <trkpt lat="45.92919" lon="4.01519">
        <ele>400.446259</ele>
        <time>2019-08-31T09:12:49Z</time>
      </trkpt>
      <trkpt lat="45.92915" lon="4.01455">
        <ele>404.678741</ele>
        <time>2019-08-31T09:13:07Z</time>
      </trkpt>
      <trkpt lat="45.92895" lon="4.014">
        <ele>408.496765</ele>
        <time>2019-08-31T09:13:23Z</time>
      </trkpt>
      <trkpt lat="45.92884" lon="4.0135">
        <ele>409.433838</ele>
        <time>2019-08-31T09:13:33Z</time>
      </trkpt>
      <trkpt lat="45.92884" lon="4.01318">
        <ele>409.204987</ele>
        <time>2019-08-31T09:14:02Z</time>
      </trkpt>
      <trkpt lat="45.92881" lon="4.01309">
        <ele>409.198761</ele>
        <time>2019-08-31T09:14:15Z</time>
      </trkpt>
      <trkpt lat="45.92884" lon="4.01248">
        <ele>407.279938</ele>
        <time>2019-08-31T09:14:25Z</time>
      </trkpt>
      <trkpt lat="45.92877" lon="4.01177">
        <ele>402.351196</ele>
        <time>2019-08-31T09:14:27Z</time>
      </trkpt>
      <trkpt lat="45.92872" lon="4.01159">
        <ele>400.807343</ele>
        <time>2019-08-31T09:14:36Z</time>
      </trkpt>
      <trkpt lat="45.9283" lon="4.01082">
        <ele>397.431244</ele>
        <time>2019-08-31T09:14:37Z</time>
      </trkpt>
      <trkpt lat="45.92823" lon="4.01076">
        <ele>397.838287</ele>
        <time>2019-08-31T09:14:40Z</time>
      </trkpt>
      <trkpt lat="45.9282" lon="4.01056">
        <ele>399.881989</ele>
        <time>2019-08-31T09:14:42Z</time>
      </trkpt>
      <trkpt lat="45.92832" lon="4.01047">
        <ele>400.440399</ele>
        <time>2019-08-31T09:14:48Z</time>
      </trkpt>
      <trkpt lat="45.92845" lon="4.0105">
        <ele>400.247986</ele>
        <time>2019-08-31T09:14:50Z</time>
      </trkpt>
      <trkpt lat="45.92846" lon="4.01055">
        <ele>399.723969</ele>
        <time>2019-08-31T09:14:56Z</time>
      </trkpt>
      <trkpt lat="45.92858" lon="4.01059">
        <ele>399.195435</ele>
        <time>2019-08-31T09:15:05Z</time>
      </trkpt>
      <trkpt lat="45.9288" lon="4.01055">
        <ele>399.927704</ele>
        <time>2019-08-31T09:15:14Z</time>
      </trkpt>
      <trkpt lat="45.929" lon="4.0106">
        <ele>398.426392</ele>
        <time>2019-08-31T09:15:32Z</time>
      </trkpt>
      <trkpt lat="45.92934" lon="4.0101">
        <ele>407.3125</ele>
        <time>2019-08-31T09:16:35Z</time>
      </trkpt>
      <trkpt lat="45.93011" lon="4.00976">
        <ele>406.569519</ele>
        <time>2019-08-31T09:16:40Z</time>
      </trkpt>
      <trkpt lat="45.93034" lon="4.00955">
        <ele>406.333679</ele>
        <time>2019-08-31T09:16:47Z</time>
      </trkpt>
      <trkpt lat="45.93053" lon="4.00924">
        <ele>405.254456</ele>
        <time>2019-08-31T09:16:52Z</time>
      </trkpt>
      <trkpt lat="45.93066" lon="4.00886">
        <ele>406.022797</ele>
        <time>2019-08-31T09:16:58Z</time>
      </trkpt>
      <trkpt lat="45.93093" lon="4.00853">
        <ele>407.711914</ele>
        <time>2019-08-31T09:17:12Z</time>
      </trkpt>
      <trkpt lat="45.93121" lon="4.0081">
        <ele>412.233765</ele>
        <time>2019-08-31T09:17:16Z</time>
      </trkpt>
      <trkpt lat="45.93129" lon="4.00806">
        <ele>412.902496</ele>
        <time>2019-08-31T09:17:24Z</time>
      </trkpt>
      <trkpt lat="45.93128" lon="4.0079">
        <ele>414.123749</ele>
        <time>2019-08-31T09:17:29Z</time>
      </trkpt>
      <trkpt lat="45.93121" lon="4.00785">
        <ele>414.190002</ele>
        <time>2019-08-31T09:18:03Z</time>
      </trkpt>
      <trkpt lat="45.93116" lon="4.00708">
        <ele>420.024353</ele>
        <time>2019-08-31T09:18:15Z</time>
      </trkpt>
      <trkpt lat="45.93103" lon="4.00679">
        <ele>422.002502</ele>
        <time>2019-08-31T09:18:39Z</time>
      </trkpt>
      <trkpt lat="45.93104" lon="4.00614">
        <ele>427.431641</ele>
        <time>2019-08-31T09:18:55Z</time>
      </trkpt>
      <trkpt lat="45.93114" lon="4.00571">
        <ele>429.779633</ele>
        <time>2019-08-31T09:19:02Z</time>
      </trkpt>
      <trkpt lat="45.93115" lon="4.00551">
        <ele>429.96817</ele>
        <time>2019-08-31T09:19:06Z</time>
      </trkpt>
      <trkpt lat="45.93113" lon="4.00543">
        <ele>430.227203</ele>
        <time>2019-08-31T09:19:11Z</time>
      </trkpt>
      <trkpt lat="45.93121" lon="4.00535">
        <ele>429.768066</ele>
        <time>2019-08-31T09:19:27Z</time>
      </trkpt>
      <trkpt lat="45.93121" lon="4.00504">
        <ele>429.845612</ele>
        <time>2019-08-31T09:19:39Z</time>
      </trkpt>
      <trkpt lat="45.9313" lon="4.00473">
        <ele>427.454773</ele>
        <time>2019-08-31T09:19:47Z</time>
      </trkpt>
      <trkpt lat="45.93135" lon="4.00426">
        <ele>424.225006</ele>
        <time>2019-08-31T09:19:49Z</time>
      </trkpt>
      <trkpt lat="45.93131" lon="4.0041">
        <ele>423.765015</ele>
        <time>2019-08-31T09:19:50Z</time>
      </trkpt>
      <trkpt lat="45.93121" lon="4.00407">
        <ele>424.644989</ele>
        <time>2019-08-31T09:19:57Z</time>
      </trkpt>
      <trkpt lat="45.93095" lon="4.00378">
        <ele>425.89093</ele>
        <time>2019-08-31T09:20:05Z</time>
      </trkpt>
      <trkpt lat="45.93117" lon="4.00351">
        <ele>425.727234</ele>
        <time>2019-08-31T09:20:21Z</time>
      </trkpt>
      <trkpt lat="45.93165" lon="4.00335">
        <ele>424.104218</ele>
        <time>2019-08-31T09:20:30Z</time>
      </trkpt>
      <trkpt lat="45.932" lon="4.0034">
        <ele>421.155212</ele>
        <time>2019-08-31T09:20:37Z</time>
      </trkpt>
      <trkpt lat="45.93238" lon="4.00336">
        <ele>419.957062</ele>
        <time>2019-08-31T09:20:48Z</time>
      </trkpt>
      <trkpt lat="45.93303" lon="4.0031">
        <ele>420.353333</ele>
        <time>2019-08-31T09:21:03Z</time>
      </trkpt>
      <trkpt lat="45.93402" lon="4.00311">
        <ele>421.448761</ele>
        <time>2019-08-31T09:21:15Z</time>
      </trkpt>
      <trkpt lat="45.93448" lon="4.00288">
        <ele>422.816559</ele>
        <time>2019-08-31T09:21:17Z</time>
      </trkpt>
      <trkpt lat="45.93451" lon="4.00294">
        <ele>422.728851</ele>
        <time>2019-08-31T09:21:22Z</time>
      </trkpt>
      <trkpt lat="45.93458" lon="4.00288">
        <ele>422.671417</ele>
        <time>2019-08-31T09:21:47Z</time>
      </trkpt>
      <trkpt lat="45.93459" lon="4.0028">
        <ele>422.663177</ele>
        <time>2019-08-31T09:22:02Z</time>
      </trkpt>
      <trkpt lat="45.93474" lon="4.00277">
        <ele>422.211304</ele>
        <time>2019-08-31T09:22:12Z</time>
      </trkpt>
      <trkpt lat="45.9352" lon="4.00249">
        <ele>415.948486</ele>
        <time>2019-08-31T09:22:17Z</time>
      </trkpt>
      <trkpt lat="45.93542" lon="4.00204">
        <ele>409.082306</ele>
        <time>2019-08-31T09:22:19Z</time>
      </trkpt>
      <trkpt lat="45.93552" lon="4.00194">
        <ele>406.145905</ele>
        <time>2019-08-31T09:22:22Z</time>
      </trkpt>
      <trkpt lat="45.93572" lon="4.00191">
        <ele>401.766205</ele>
        <time>2019-08-31T09:22:24Z</time>
      </trkpt>
      <trkpt lat="45.93588" lon="4.00194">
        <ele>398.687927</ele>
        <time>2019-08-31T09:22:28Z</time>
      </trkpt>
      <trkpt lat="45.9362" lon="4.00188">
        <ele>391.842682</ele>
        <time>2019-08-31T09:22:30Z</time>
      </trkpt>
      <trkpt lat="45.93629" lon="4.00178">
        <ele>389.018311</ele>
        <time>2019-08-31T09:22:36Z</time>
      </trkpt>
      <trkpt lat="45.93651" lon="4.00131">
        <ele>377.543091</ele>
        <time>2019-08-31T09:22:39Z</time>
      </trkpt>
      <trkpt lat="45.93672" lon="4.00113">
        <ele>369.216797</ele>
        <time>2019-08-31T09:22:41Z</time>
      </trkpt>
      <trkpt lat="45.93687" lon="4.00109">
        <ele>365.179169</ele>
        <time>2019-08-31T09:22:42Z</time>
      </trkpt>
      <trkpt lat="45.93692" lon="4.00116">
        <ele>365.546173</ele>
        <time>2019-08-31T09:22:44Z</time>
      </trkpt>
      <trkpt lat="45.93705" lon="4.00119">
        <ele>363.059204</ele>
        <time>2019-08-31T09:22:50Z</time>
      </trkpt>
      <trkpt lat="45.9373" lon="4.0017">
        <ele>364.481415</ele>
        <time>2019-08-31T09:22:56Z</time>
      </trkpt>
      <trkpt lat="45.93761" lon="4.00204">
        <ele>360.023499</ele>
        <time>2019-08-31T09:23:00Z</time>
      </trkpt>
      <trkpt lat="45.93785" lon="4.00215">
        <ele>352.853668</ele>
        <time>2019-08-31T09:23:06Z</time>
      </trkpt>
      <trkpt lat="45.9381" lon="4.00234">
        <ele>348.126984</ele>
        <time>2019-08-31T09:23:08Z</time>
      </trkpt>
      <trkpt lat="45.93818" lon="4.00235">
        <ele>346.102448</ele>
        <time>2019-08-31T09:23:12Z</time>
      </trkpt>
      <trkpt lat="45.93831" lon="4.00222">
        <ele>343.085693</ele>
        <time>2019-08-31T09:23:21Z</time>
      </trkpt>
      <trkpt lat="45.93844" lon="4.00215">
        <ele>344.547241</ele>
        <time>2019-08-31T09:23:26Z</time>
      </trkpt>
      <trkpt lat="45.9385" lon="4.00222">
        <ele>345.316895</ele>
        <time>2019-08-31T09:23:55Z</time>
      </trkpt>
      <trkpt lat="45.93869" lon="4.00305">
        <ele>341.62851</ele>
        <time>2019-08-31T09:24:00Z</time>
      </trkpt>
      <trkpt lat="45.9388" lon="4.00331">
        <ele>339.276611</ele>
        <time>2019-08-31T09:24:05Z</time>
      </trkpt>
      <trkpt lat="45.93897" lon="4.00353">
        <ele>341.51236</ele>
        <time>2019-08-31T09:24:10Z</time>
      </trkpt>
      <trkpt lat="45.93922" lon="4.00373">
        <ele>341.789673</ele>
        <time>2019-08-31T09:24:22Z</time>
      </trkpt>
      <trkpt lat="45.93965" lon="4.00425">
        <ele>340.667938</ele>
        <time>2019-08-31T09:24:24Z</time>
      </trkpt>
      <trkpt lat="45.93967" lon="4.00433">
        <ele>340.140106</ele>
        <time>2019-08-31T09:24:29Z</time>
      </trkpt>
      <trkpt lat="45.93979" lon="4.00448">
        <ele>342.402008</ele>
        <time>2019-08-31T09:24:39Z</time>
      </trkpt>
      <trkpt lat="45.93996" lon="4.0048">
        <ele>343.422699</ele>
        <time>2019-08-31T09:24:42Z</time>
      </trkpt>
      <trkpt lat="45.93999" lon="4.0048">
        <ele>344.270935</ele>
        <time>2019-08-31T09:24:47Z</time>
      </trkpt>
      <trkpt lat="45.93994" lon="4.00488">
        <ele>343.004425</ele>
        <time>2019-08-31T09:24:51Z</time>
      </trkpt>
      <trkpt lat="45.93992" lon="4.00504">
        <ele>342.646179</ele>
        <time>2019-08-31T09:25:18Z</time>
      </trkpt>
      <trkpt lat="45.94003" lon="4.00587">
        <ele>345.617493</ele>
        <time>2019-08-31T09:25:34Z</time>
      </trkpt>
      <trkpt lat="45.94025" lon="4.00612">
        <ele>351.242493</ele>
        <time>2019-08-31T09:25:43Z</time>
      </trkpt>
      <trkpt lat="45.94037" lon="4.00619">
        <ele>354.491241</ele>
        <time>2019-08-31T09:26:26Z</time>
      </trkpt>
      <trkpt lat="45.94108" lon="4.00613">
        <ele>369.081512</ele>
        <time>2019-08-31T09:26:42Z</time>
      </trkpt>
      <trkpt lat="45.9414" lon="4.00603">
        <ele>371.772705</ele>
        <time>2019-08-31T09:27:02Z</time>
      </trkpt>
      <trkpt lat="45.94175" lon="4.00609">
        <ele>371.130005</ele>
        <time>2019-08-31T09:27:16Z</time>
      </trkpt>
      <trkpt lat="45.94203" lon="4.00602">
        <ele>370.234985</ele>
        <time>2019-08-31T09:27:30Z</time>
      </trkpt>
      <trkpt lat="45.9426" lon="4.00556">
        <ele>370.903503</ele>
        <time>2019-08-31T09:27:42Z</time>
      </trkpt>
      <trkpt lat="45.943" lon="4.00539">
        <ele>372.859375</ele>
        <time>2019-08-31T09:27:56Z</time>
      </trkpt>
      <trkpt lat="45.94331" lon="4.0054">
        <ele>373.315582</ele>
        <time>2019-08-31T09:28:08Z</time>
      </trkpt>
      <trkpt lat="45.94353" lon="4.00531">
        <ele>373.933014</ele>
        <time>2019-08-31T09:28:29Z</time>
      </trkpt>
      <trkpt lat="45.94383" lon="4.00534">
        <ele>372.968445</ele>
        <time>2019-08-31T09:28:59Z</time>
      </trkpt>
      <trkpt lat="45.94386" lon="4.00526">
        <ele>373.174194</ele>
        <time>2019-08-31T09:29:13Z</time>
      </trkpt>
      <trkpt lat="45.94389" lon="4.00529">
        <ele>372.892944</ele>
        <time>2019-08-31T09:30:33Z</time>
      </trkpt>
      <trkpt lat="45.94443" lon="4.00496">
        <ele>366.4664</ele>
        <time>2019-08-31T09:30:47Z</time>
      </trkpt>
      <trkpt lat="45.94492" lon="4.00434">
        <ele>357.149994</ele>
        <time>2019-08-31T09:30:57Z</time>
      </trkpt>
      <trkpt lat="45.94525" lon="4.00384">
        <ele>357.569397</ele>
        <time>2019-08-31T09:31:00Z</time>
      </trkpt>
      <trkpt lat="45.94539" lon="4.0038">
        <ele>359.392181</ele>
        <time>2019-08-31T09:31:08Z</time>
      </trkpt>
      <trkpt lat="45.9453" lon="4.00401">
        <ele>358.530457</ele>
        <time>2019-08-31T09:31:19Z</time>
      </trkpt>
      <trkpt lat="45.94533" lon="4.00413">
        <ele>359.224579</ele>
        <time>2019-08-31T09:31:38Z</time>
      </trkpt>
      <trkpt lat="45.9453" lon="4.00454">
        <ele>360.560425</ele>
        <time>2019-08-31T09:31:46Z</time>
      </trkpt>
      <trkpt lat="45.94524" lon="4.00471">
        <ele>359.646088</ele>
        <time>2019-08-31T09:32:08Z</time>
      </trkpt>
      <trkpt lat="45.9452" lon="4.00519">
        <ele>359.174988</ele>
        <time>2019-08-31T09:32:19Z</time>
      </trkpt>
      <trkpt lat="45.94524" lon="4.00542">
        <ele>360.375</ele>
        <time>2019-08-31T09:32:26Z</time>
      </trkpt>
      <trkpt lat="45.94531" lon="4.00556">
        <ele>362.9505</ele>
        <time>2019-08-31T09:32:40Z</time>
      </trkpt>
      <trkpt lat="45.94552" lon="4.0057">
        <ele>369.359497</ele>
        <time>2019-08-31T09:32:44Z</time>
      </trkpt>
      <trkpt lat="45.94557" lon="4.00564">
        <ele>370.772064</ele>
        <time>2019-08-31T09:32:56Z</time>
      </trkpt>
      <trkpt lat="45.94557" lon="4.00533">
        <ele>370.852814</ele>
        <time>2019-08-31T09:33:08Z</time>
      </trkpt>
      <trkpt lat="45.94565" lon="4.00506">
        <ele>373.159027</ele>
        <time>2019-08-31T09:33:24Z</time>
      </trkpt>
      <trkpt lat="45.94588" lon="4.00485">
        <ele>379.641937</ele>
        <time>2019-08-31T09:33:42Z</time>
      </trkpt>
      <trkpt lat="45.94609" lon="4.00436">
        <ele>380.104706</ele>
        <time>2019-08-31T09:34:06Z</time>
      </trkpt>
      <trkpt lat="45.94648" lon="4.004">
        <ele>383.551208</ele>
        <time>2019-08-31T09:35:20Z</time>
      </trkpt>
      <trkpt lat="45.94692" lon="4.00377">
        <ele>389.38678</ele>
        <time>2019-08-31T09:35:25Z</time>
      </trkpt>
      <trkpt lat="45.9469" lon="4.00375">
        <ele>388.965363</ele>
        <time>2019-08-31T09:36:27Z</time>
      </trkpt>
      <trkpt lat="45.94713" lon="4.00369">
        <ele>392.757813</ele>
        <time>2019-08-31T09:36:38Z</time>
      </trkpt>
      <trkpt lat="45.94726" lon="4.00359">
        <ele>394.855957</ele>
        <time>2019-08-31T09:36:53Z</time>
      </trkpt>
      <trkpt lat="45.94743" lon="4.00361">
        <ele>397.394714</ele>
        <time>2019-08-31T09:37:09Z</time>
      </trkpt>
      <trkpt lat="45.94763" lon="4.0035">
        <ele>399.787598</ele>
        <time>2019-08-31T09:37:18Z</time>
      </trkpt>
      <trkpt lat="45.94775" lon="4.00352">
        <ele>401.34137</ele>
        <time>2019-08-31T09:37:33Z</time>
      </trkpt>
      <trkpt lat="45.94794" lon="4.0037">
        <ele>402.693542</ele>
        <time>2019-08-31T09:37:45Z</time>
      </trkpt>
      <trkpt lat="45.94813" lon="4.00379">
        <ele>403.581512</ele>
        <time>2019-08-31T09:37:52Z</time>
      </trkpt>
      <trkpt lat="45.94829" lon="4.00369">
        <ele>404.312408</ele>
        <time>2019-08-31T09:38:04Z</time>
      </trkpt>
      <trkpt lat="45.94859" lon="4.00374">
        <ele>405.573975</ele>
        <time>2019-08-31T09:38:10Z</time>
      </trkpt>
      <trkpt lat="45.9487" lon="4.00391">
        <ele>405.71875</ele>
        <time>2019-08-31T09:38:17Z</time>
      </trkpt>
      <trkpt lat="45.9489" lon="4.00386">
        <ele>406.241241</ele>
        <time>2019-08-31T09:38:25Z</time>
      </trkpt>
      <trkpt lat="45.94914" lon="4.0039">
        <ele>406.680573</ele>
        <time>2019-08-31T09:38:41Z</time>
      </trkpt>
      <trkpt lat="45.9496" lon="4.00376">
        <ele>407.00766</ele>
        <time>2019-08-31T09:38:55Z</time>
      </trkpt>
      <trkpt lat="45.94997" lon="4.00377">
        <ele>407.085663</ele>
        <time>2019-08-31T09:39:03Z</time>
      </trkpt>
      <trkpt lat="45.9501" lon="4.00387">
        <ele>407.31958</ele>
        <time>2019-08-31T09:39:38Z</time>
      </trkpt>
      <trkpt lat="45.95138" lon="4.00394">
        <ele>407.837555</ele>
        <time>2019-08-31T09:39:50Z</time>
      </trkpt>
      <trkpt lat="45.95181" lon="4.00389">
        <ele>406.782104</ele>
        <time>2019-08-31T09:39:56Z</time>
      </trkpt>
      <trkpt lat="45.95205" lon="4.00404">
        <ele>407.418365</ele>
        <time>2019-08-31T09:40:05Z</time>
      </trkpt>
      <trkpt lat="45.95247" lon="4.00412">
        <ele>407.526245</ele>
        <time>2019-08-31T09:40:22Z</time>
      </trkpt>
      <trkpt lat="45.95321" lon="4.00437">
        <ele>407.742493</ele>
        <time>2019-08-31T09:40:34Z</time>
      </trkpt>
      <trkpt lat="45.95364" lon="4.00465">
        <ele>408.839996</ele>
        <time>2019-08-31T09:40:39Z</time>
      </trkpt>
      <trkpt lat="45.95379" lon="4.00487">
        <ele>409.829987</ele>
        <time>2019-08-31T09:40:40Z</time>
      </trkpt>
      <trkpt lat="45.95385" lon="4.00487">
        <ele>409.856262</ele>
        <time>2019-08-31T09:40:46Z</time>
      </trkpt>
      <trkpt lat="45.95406" lon="4.0051">
        <ele>410.900787</ele>
        <time>2019-08-31T09:40:50Z</time>
      </trkpt>
      <trkpt lat="45.95422" lon="4.00519">
        <ele>411.623108</ele>
        <time>2019-08-31T09:40:51Z</time>
      </trkpt>
      <trkpt lat="45.95423" lon="4.00524">
        <ele>411.865234</ele>
        <time>2019-08-31T09:41:04Z</time>
      </trkpt>
      <trkpt lat="45.95462" lon="4.00552">
        <ele>412.144806</ele>
        <time>2019-08-31T09:41:31Z</time>
      </trkpt>
      <trkpt lat="45.95553" lon="4.00596">
        <ele>407.301483</ele>
        <time>2019-08-31T09:41:35Z</time>
      </trkpt>
      <trkpt lat="45.95569" lon="4.0061">
        <ele>406.332886</ele>
        <time>2019-08-31T09:41:50Z</time>
      </trkpt>
      <trkpt lat="45.9566" lon="4.00648">
        <ele>397.15625</ele>
        <time>2019-08-31T09:41:53Z</time>
      </trkpt>
      <trkpt lat="45.95682" lon="4.00643">
        <ele>395.454987</ele>
        <time>2019-08-31T09:41:56Z</time>
      </trkpt>
      <trkpt lat="45.95706" lon="4.00645">
        <ele>393.288757</ele>
        <time>2019-08-31T09:42:00Z</time>
      </trkpt>
      <trkpt lat="45.95744" lon="4.00661">
        <ele>389.676849</ele>
        <time>2019-08-31T09:42:05Z</time>
      </trkpt>
      <trkpt lat="45.95785" lon="4.00689">
        <ele>384.638916</ele>
        <time>2019-08-31T09:42:14Z</time>
      </trkpt>
      <trkpt lat="45.95833" lon="4.00733">
        <ele>377.211151</ele>
        <time>2019-08-31T09:42:18Z</time>
      </trkpt>
      <trkpt lat="45.95851" lon="4.00728">
        <ele>376.844269</ele>
        <time>2019-08-31T09:42:21Z</time>
      </trkpt>
      <trkpt lat="45.95858" lon="4.00717">
        <ele>377.618256</ele>
        <time>2019-08-31T09:42:23Z</time>
      </trkpt>
      <trkpt lat="45.95862" lon="4.00703">
        <ele>378.344879</ele>
        <time>2019-08-31T09:42:33Z</time>
      </trkpt>
      <trkpt lat="45.95883" lon="4.00667">
        <ele>378.795746</ele>
        <time>2019-08-31T09:42:53Z</time>
      </trkpt>
      <trkpt lat="45.95927" lon="4.00567">
        <ele>374.922638</ele>
        <time>2019-08-31T09:43:04Z</time>
      </trkpt>
      <trkpt lat="45.95988" lon="4.00487">
        <ele>363.057739</ele>
        <time>2019-08-31T09:43:13Z</time>
      </trkpt>
      <trkpt lat="45.96017" lon="4.00411">
        <ele>349.123016</ele>
        <time>2019-08-31T09:43:16Z</time>
      </trkpt>
      <trkpt lat="45.96022" lon="4.00383">
        <ele>345.770935</ele>
        <time>2019-08-31T09:43:17Z</time>
      </trkpt>
      <trkpt lat="45.9602" lon="4.00374">
        <ele>345.532776</ele>
        <time>2019-08-31T09:43:21Z</time>
      </trkpt>
      <trkpt lat="45.96024" lon="4.00331">
        <ele>341.292511</ele>
        <time>2019-08-31T09:43:24Z</time>
      </trkpt>
      <trkpt lat="45.96021" lon="4.00291">
        <ele>337.110321</ele>
        <time>2019-08-31T09:43:27Z</time>
      </trkpt>
      <trkpt lat="45.96029" lon="4.00277">
        <ele>334.467377</ele>
        <time>2019-08-31T09:43:29Z</time>
      </trkpt>
      <trkpt lat="45.96036" lon="4.00271">
        <ele>333.302399</ele>
        <time>2019-08-31T09:43:33Z</time>
      </trkpt>
      <trkpt lat="45.9604" lon="4.00253">
        <ele>333.901001</ele>
        <time>2019-08-31T09:43:36Z</time>
      </trkpt>
      <trkpt lat="45.96049" lon="4.00248">
        <ele>335.498505</ele>
        <time>2019-08-31T09:43:53Z</time>
      </trkpt>
      <trkpt lat="45.96046" lon="4.00254">
        <ele>334.71991</ele>
        <time>2019-08-31T09:44:33Z</time>
      </trkpt>
      <trkpt lat="45.96077" lon="4.00292">
        <ele>335.564362</ele>
        <time>2019-08-31T09:44:38Z</time>
      </trkpt>
      <trkpt lat="45.96084" lon="4.00309">
        <ele>334.759613</ele>
        <time>2019-08-31T09:45:09Z</time>
      </trkpt>
      <trkpt lat="45.96077" lon="4.00384">
        <ele>332.335297</ele>
        <time>2019-08-31T09:45:12Z</time>
      </trkpt>
      <trkpt lat="45.96071" lon="4.00401">
        <ele>333.644348</ele>
        <time>2019-08-31T09:45:19Z</time>
      </trkpt>
      <trkpt lat="45.96062" lon="4.00467">
        <ele>337.70816</ele>
        <time>2019-08-31T09:45:24Z</time>
      </trkpt>
      <trkpt lat="45.96062" lon="4.00517">
        <ele>334.176331</ele>
        <time>2019-08-31T09:45:27Z</time>
      </trkpt>
      <trkpt lat="45.9607" lon="4.00551">
        <ele>330.332489</ele>
        <time>2019-08-31T09:45:34Z</time>
      </trkpt>
      <trkpt lat="45.96103" lon="4.00602">
        <ele>326.649109</ele>
        <time>2019-08-31T09:45:35Z</time>
      </trkpt>
      <trkpt lat="45.96111" lon="4.00603">
        <ele>325.960999</ele>
        <time>2019-08-31T09:45:39Z</time>
      </trkpt>
      <trkpt lat="45.96132" lon="4.00621">
        <ele>325.427002</ele>
        <time>2019-08-31T09:45:46Z</time>
      </trkpt>
      <trkpt lat="45.96151" lon="4.00656">
        <ele>326.328491</ele>
        <time>2019-08-31T09:45:53Z</time>
      </trkpt>
      <trkpt lat="45.96138" lon="4.007">
        <ele>325.493408</ele>
        <time>2019-08-31T09:45:55Z</time>
      </trkpt>
      <trkpt lat="45.96136" lon="4.0072">
        <ele>326.007111</ele>
        <time>2019-08-31T09:45:57Z</time>
      </trkpt>
      <trkpt lat="45.96139" lon="4.00739">
        <ele>325.98114</ele>
        <time>2019-08-31T09:46:16Z</time>
      </trkpt>
      <trkpt lat="45.96187" lon="4.00845">
        <ele>319.817017</ele>
        <time>2019-08-31T09:46:30Z</time>
      </trkpt>
      <trkpt lat="45.9622" lon="4.00893">
        <ele>317.031799</ele>
        <time>2019-08-31T09:46:44Z</time>
      </trkpt>
      <trkpt lat="45.96254" lon="4.00927">
        <ele>313.001709</ele>
        <time>2019-08-31T09:46:49Z</time>
      </trkpt>
      <trkpt lat="45.9628" lon="4.00931">
        <ele>315.901154</ele>
        <time>2019-08-31T09:46:58Z</time>
      </trkpt>
      <trkpt lat="45.96321" lon="4.00945">
        <ele>320.704987</ele>
        <time>2019-08-31T09:47:01Z</time>
      </trkpt>
      <trkpt lat="45.96334" lon="4.00961">
        <ele>320.712494</ele>
        <time>2019-08-31T09:47:02Z</time>
      </trkpt>
      <trkpt lat="45.96335" lon="4.0097">
        <ele>319.119995</ele>
        <time>2019-08-31T09:47:03Z</time>
      </trkpt>
      <trkpt lat="45.9634" lon="4.00971">
        <ele>319.954987</ele>
        <time>2019-08-31T09:47:08Z</time>
      </trkpt>
      <trkpt lat="45.96352" lon="4.00994">
        <ele>319.631714</ele>
        <time>2019-08-31T09:47:26Z</time>
      </trkpt>
      <trkpt lat="45.9636" lon="4.01092">
        <ele>320.019684</ele>
        <time>2019-08-31T09:47:38Z</time>
      </trkpt>
      <trkpt lat="45.96367" lon="4.01144">
        <ele>319.382141</ele>
        <time>2019-08-31T09:47:43Z</time>
      </trkpt>
      <trkpt lat="45.96378" lon="4.01183">
        <ele>319.014252</ele>
        <time>2019-08-31T09:47:50Z</time>
      </trkpt>
      <trkpt lat="45.96391" lon="4.01208">
        <ele>321.346741</ele>
        <time>2019-08-31T09:47:59Z</time>
      </trkpt>
      <trkpt lat="45.96414" lon="4.01269">
        <ele>324.01889</ele>
        <time>2019-08-31T09:48:07Z</time>
      </trkpt>
      <trkpt lat="45.9642" lon="4.0131">
        <ele>322.012726</ele>
        <time>2019-08-31T09:48:22Z</time>
      </trkpt>
      <trkpt lat="45.96418" lon="4.01343">
        <ele>316.214691</ele>
        <time>2019-08-31T09:48:40Z</time>
      </trkpt>
      <trkpt lat="45.96438" lon="4.01366">
        <ele>317.693329</ele>
        <time>2019-08-31T09:49:07Z</time>
      </trkpt>
      <trkpt lat="45.96438" lon="4.0136">
        <ele>319.132996</ele>
        <time>2019-08-31T09:49:20Z</time>
      </trkpt>
      <trkpt lat="45.96442" lon="4.0136">
        <ele>319.419373</ele>
        <time>2019-08-31T09:49:35Z</time>
      </trkpt>
      <trkpt lat="45.96437" lon="4.01364">
        <ele>318.07782</ele>
        <time>2019-08-31T09:49:51Z</time>
      </trkpt>
      <trkpt lat="45.9644" lon="4.01363">
        <ele>318.47464</ele>
        <time>2019-08-31T09:49:58Z</time>
      </trkpt>
      <trkpt lat="45.96441" lon="4.01355">
        <ele>320.355011</ele>
        <time>2019-08-31T09:50:59Z</time>
      </trkpt>
      <trkpt lat="45.96437" lon="4.01362">
        <ele>318.469391</ele>
        <time>2019-08-31T09:51:47Z</time>
      </trkpt>
      <trkpt lat="45.9644" lon="4.0136">
        <ele>319.299561</ele>
        <time>2019-08-31T09:52:44Z</time>
      </trkpt>
      <trkpt lat="45.96438" lon="4.01363">
        <ele>318.384369</ele>
        <time>2019-08-31T09:52:48Z</time>
      </trkpt>
      <trkpt lat="45.9643" lon="4.01359">
        <ele>318.422516</ele>
        <time>2019-08-31T09:53:06Z</time>
      </trkpt>
      <trkpt lat="45.96437" lon="4.01366">
        <ele>317.652008</ele>
        <time>2019-08-31T09:53:13Z</time>
      </trkpt>
      <trkpt lat="45.9644" lon="4.01364">
        <ele>318.26886</ele>
        <time>2019-08-31T09:53:40Z</time>
      </trkpt>
      <trkpt lat="45.96433" lon="4.01359">
        <ele>318.672821</ele>
        <time>2019-08-31T09:54:57Z</time>
      </trkpt>
      <trkpt lat="45.96441" lon="4.01363">
        <ele>318.713196</ele>
        <time>2019-08-31T09:55:17Z</time>
      </trkpt>
      <trkpt lat="45.9644" lon="4.01358">
        <ele>319.700623</ele>
        <time>2019-08-31T09:55:20Z</time>
      </trkpt>
      <trkpt lat="45.96432" lon="4.01353">
        <ele>319.570129</ele>
        <time>2019-08-31T09:55:25Z</time>
      </trkpt>
      <trkpt lat="45.9643" lon="4.01357">
        <ele>318.691498</ele>
        <time>2019-08-31T09:56:07Z</time>
      </trkpt>
      <trkpt lat="45.96437" lon="4.01364">
        <ele>318.097504</ele>
        <time>2019-08-31T09:56:14Z</time>
      </trkpt>
      <trkpt lat="45.96439" lon="4.01361">
        <ele>318.825256</ele>
        <time>2019-08-31T09:56:36Z</time>
      </trkpt>
      <trkpt lat="45.96431" lon="4.01357">
        <ele>318.755768</ele>
        <time>2019-08-31T09:57:34Z</time>
      </trkpt>
      <trkpt lat="45.96435" lon="4.01363">
        <ele>318.168488</ele>
        <time>2019-08-31T09:57:46Z</time>
      </trkpt>
      <trkpt lat="45.96441" lon="4.01361">
        <ele>319.002197</ele>
        <time>2019-08-31T09:58:30Z</time>
      </trkpt>
      <trkpt lat="45.96437" lon="4.01366">
        <ele>317.669983</ele>
        <time>2019-08-31T09:58:34Z</time>
      </trkpt>
      <trkpt lat="45.96428" lon="4.01365">
        <ele>317.010376</ele>
        <time>2019-08-31T09:58:53Z</time>
      </trkpt>
      <trkpt lat="45.96434" lon="4.01369">
        <ele>316.853119</ele>
        <time>2019-08-31T09:58:59Z</time>
      </trkpt>
      <trkpt lat="45.96439" lon="4.01363">
        <ele>318.482758</ele>
        <time>2019-08-31T09:59:15Z</time>
      </trkpt>
      <trkpt lat="45.96438" lon="4.0135">
        <ele>321.067505</ele>
        <time>2019-08-31T09:59:26Z</time>
      </trkpt>
      <trkpt lat="45.96446" lon="4.01339">
        <ele>324.715759</ele>
        <time>2019-08-31T09:59:50Z</time>
      </trkpt>
      <trkpt lat="45.96449" lon="4.01283">
        <ele>335.086243</ele>
        <time>2019-08-31T10:00:27Z</time>
      </trkpt>
      <trkpt lat="45.96443" lon="4.0121">
        <ele>343.847015</ele>
        <time>2019-08-31T10:00:42Z</time>
      </trkpt>
      <trkpt lat="45.96437" lon="4.01185">
        <ele>345.949585</ele>
        <time>2019-08-31T10:00:56Z</time>
      </trkpt>
      <trkpt lat="45.96444" lon="4.01155">
        <ele>351.265259</ele>
        <time>2019-08-31T10:01:00Z</time>
      </trkpt>
      <trkpt lat="45.9645" lon="4.01154">
        <ele>353.0289</ele>
        <time>2019-08-31T10:01:06Z</time>
      </trkpt>
      <trkpt lat="45.96462" lon="4.01162">
        <ele>354.525269</ele>
        <time>2019-08-31T10:01:14Z</time>
      </trkpt>
      <trkpt lat="45.96467" lon="4.01174">
        <ele>354.004211</ele>
        <time>2019-08-31T10:01:28Z</time>
      </trkpt>
      <trkpt lat="45.96466" lon="4.0117">
        <ele>354.224091</ele>
        <time>2019-08-31T10:01:37Z</time>
      </trkpt>
      <trkpt lat="45.96469" lon="4.01187">
        <ele>352.404663</ele>
        <time>2019-08-31T10:01:42Z</time>
      </trkpt>
      <trkpt lat="45.96478" lon="4.01197">
        <ele>349.48111</ele>
        <time>2019-08-31T10:02:17Z</time>
      </trkpt>
      <trkpt lat="45.96491" lon="4.01203">
        <ele>338.858429</ele>
        <time>2019-08-31T10:02:31Z</time>
      </trkpt>
      <trkpt lat="45.96484" lon="4.01171">
        <ele>348.68222</ele>
        <time>2019-08-31T10:02:56Z</time>
      </trkpt>
      <trkpt lat="45.9648" lon="4.01126">
        <ele>359.471191</ele>
        <time>2019-08-31T10:03:17Z</time>
      </trkpt>
      <trkpt lat="45.96474" lon="4.01117">
        <ele>363.178009</ele>
        <time>2019-08-31T10:03:23Z</time>
      </trkpt>
      <trkpt lat="45.96465" lon="4.01121">
        <ele>360.758759</ele>
        <time>2019-08-31T10:03:40Z</time>
      </trkpt>
      <trkpt lat="45.96462" lon="4.01129">
        <ele>359.268341</ele>
        <time>2019-08-31T10:03:49Z</time>
      </trkpt>
      <trkpt lat="45.96447" lon="4.0112">
        <ele>356.147308</ele>
        <time>2019-08-31T10:03:51Z</time>
      </trkpt>
      <trkpt lat="45.96439" lon="4.01107">
        <ele>354.355988</ele>
        <time>2019-08-31T10:03:58Z</time>
      </trkpt>
      <trkpt lat="45.96439" lon="4.01058">
        <ele>354.631439</ele>
        <time>2019-08-31T10:04:00Z</time>
      </trkpt>
      <trkpt lat="45.96443" lon="4.01045">
        <ele>355.244385</ele>
        <time>2019-08-31T10:04:05Z</time>
      </trkpt>
      <trkpt lat="45.96453" lon="4.01031">
        <ele>357.021301</ele>
        <time>2019-08-31T10:04:22Z</time>
      </trkpt>
      <trkpt lat="45.96472" lon="4.00982">
        <ele>358.940002</ele>
        <time>2019-08-31T10:04:25Z</time>
      </trkpt>
      <trkpt lat="45.96469" lon="4.00977">
        <ele>359.235901</ele>
        <time>2019-08-31T10:04:38Z</time>
      </trkpt>
      <trkpt lat="45.9643" lon="4.00957">
        <ele>356.050995</ele>
        <time>2019-08-31T10:05:15Z</time>
      </trkpt>
      <trkpt lat="45.96415" lon="4.00935">
        <ele>354.892548</ele>
        <time>2019-08-31T10:05:31Z</time>
      </trkpt>
      <trkpt lat="45.96401" lon="4.00868">
        <ele>361.814636</ele>
        <time>2019-08-31T10:05:53Z</time>
      </trkpt>
      <trkpt lat="45.96393" lon="4.00797">
        <ele>365.462006</ele>
        <time>2019-08-31T10:06:01Z</time>
      </trkpt>
      <trkpt lat="45.96381" lon="4.00774">
        <ele>364.492096</ele>
        <time>2019-08-31T10:06:03Z</time>
      </trkpt>
      <trkpt lat="45.96381" lon="4.00766">
        <ele>364.649872</ele>
        <time>2019-08-31T10:06:09Z</time>
      </trkpt>
      <trkpt lat="45.96389" lon="4.00751">
        <ele>365.629761</ele>
        <time>2019-08-31T10:06:22Z</time>
      </trkpt>
      <trkpt lat="45.96422" lon="4.00747">
        <ele>368.927185</ele>
        <time>2019-08-31T10:06:29Z</time>
      </trkpt>
      <trkpt lat="45.96434" lon="4.00764">
        <ele>370.663086</ele>
        <time>2019-08-31T10:06:33Z</time>
      </trkpt>
      <trkpt lat="45.96437" lon="4.00782">
        <ele>371.575073</ele>
        <time>2019-08-31T10:06:48Z</time>
      </trkpt>
      <trkpt lat="45.96426" lon="4.00847">
        <ele>368.240814</ele>
        <time>2019-08-31T10:06:50Z</time>
      </trkpt>
      <trkpt lat="45.96427" lon="4.00855">
        <ele>368.093597</ele>
        <time>2019-08-31T10:06:56Z</time>
      </trkpt>
      <trkpt lat="45.96439" lon="4.00873">
        <ele>368.868347</ele>
        <time>2019-08-31T10:07:06Z</time>
      </trkpt>
      <trkpt lat="45.9647" lon="4.00885">
        <ele>371.419617</ele>
        <time>2019-08-31T10:07:12Z</time>
      </trkpt>
      <trkpt lat="45.96493" lon="4.00878">
        <ele>374.828003</ele>
        <time>2019-08-31T10:07:17Z</time>
      </trkpt>
      <trkpt lat="45.96509" lon="4.00881">
        <ele>375.622101</ele>
        <time>2019-08-31T10:07:22Z</time>
      </trkpt>
      <trkpt lat="45.96523" lon="4.009">
        <ele>371.743805</ele>
        <time>2019-08-31T10:07:30Z</time>
      </trkpt>
      <trkpt lat="45.96547" lon="4.00897">
        <ele>368.497986</ele>
        <time>2019-08-31T10:07:38Z</time>
      </trkpt>
      <trkpt lat="45.96561" lon="4.00878">
        <ele>375.514587</ele>
        <time>2019-08-31T10:08:11Z</time>
      </trkpt>
      <trkpt lat="45.96568" lon="4.0085">
        <ele>382.83728</ele>
        <time>2019-08-31T10:08:24Z</time>
      </trkpt>
      <trkpt lat="45.96564" lon="4.00858">
        <ele>381.27655</ele>
        <time>2019-08-31T10:08:39Z</time>
      </trkpt>
      <trkpt lat="45.96567" lon="4.00847">
        <ele>383.366791</ele>
        <time>2019-08-31T10:08:58Z</time>
      </trkpt>
      <trkpt lat="45.96583" lon="4.00832">
        <ele>384.040161</ele>
        <time>2019-08-31T10:09:09Z</time>
      </trkpt>
      <trkpt lat="45.96613" lon="4.00837">
        <ele>377.233368</ele>
        <time>2019-08-31T10:09:17Z</time>
      </trkpt>
      <trkpt lat="45.9663" lon="4.0082">
        <ele>381.851593</ele>
        <time>2019-08-31T10:09:24Z</time>
      </trkpt>
      <trkpt lat="45.96647" lon="4.00818">
        <ele>380.45694</ele>
        <time>2019-08-31T10:09:36Z</time>
      </trkpt>
      <trkpt lat="45.96656" lon="4.00803">
        <ele>384.435791</ele>
        <time>2019-08-31T10:09:40Z</time>
      </trkpt>
      <trkpt lat="45.96671" lon="4.00794">
        <ele>382.939484</ele>
        <time>2019-08-31T10:09:47Z</time>
      </trkpt>
      <trkpt lat="45.96716" lon="4.00785">
        <ele>377.26886</ele>
        <time>2019-08-31T10:09:52Z</time>
      </trkpt>
      <trkpt lat="45.96746" lon="4.00771">
        <ele>377.032471</ele>
        <time>2019-08-31T10:09:54Z</time>
      </trkpt>
      <trkpt lat="45.96758" lon="4.00758">
        <ele>378.111755</ele>
        <time>2019-08-31T10:10:04Z</time>
      </trkpt>
      <trkpt lat="45.96796" lon="4.00696">
        <ele>376.081238</ele>
        <time>2019-08-31T10:10:11Z</time>
      </trkpt>
      <trkpt lat="45.96805" lon="4.00644">
        <ele>377.009491</ele>
        <time>2019-08-31T10:10:24Z</time>
      </trkpt>
      <trkpt lat="45.9689" lon="4.00556">
        <ele>375.8</ele>
        <time>2019-08-31T10:11:56Z</time>
      </trkpt>
      <trkpt lat="45.96919" lon="4.00474">
        <ele>368.200287</ele>
        <time>2019-08-31T10:12:14Z</time>
      </trkpt>
      <trkpt lat="45.96932" lon="4.0042">
        <ele>363.075165</ele>
        <time>2019-08-31T10:12:16Z</time>
      </trkpt>
      <trkpt lat="45.96933" lon="4.00397">
        <ele>361.637695</ele>
        <time>2019-08-31T10:12:17Z</time>
      </trkpt>
      <trkpt lat="45.96929" lon="4.00388">
        <ele>361.867981</ele>
        <time>2019-08-31T10:12:19Z</time>
      </trkpt>
      <trkpt lat="45.96919" lon="4.00385">
        <ele>363.675873</ele>
        <time>2019-08-31T10:12:22Z</time>
      </trkpt>
      <trkpt lat="45.96913" lon="4.00367">
        <ele>364.331848</ele>
        <time>2019-08-31T10:12:26Z</time>
      </trkpt>
      <trkpt lat="45.96912" lon="4.00341">
        <ele>366.223755</ele>
        <time>2019-08-31T10:12:28Z</time>
      </trkpt>
      <trkpt lat="45.96931" lon="4.00328">
        <ele>364.585388</ele>
        <time>2019-08-31T10:12:29Z</time>
      </trkpt>
      <trkpt lat="45.96936" lon="4.00337">
        <ele>362.716461</ele>
        <time>2019-08-31T10:12:30Z</time>
      </trkpt>
      <trkpt lat="45.96943" lon="4.00334">
        <ele>362.917206</ele>
        <time>2019-08-31T10:12:31Z</time>
      </trkpt>
      <trkpt lat="45.96946" lon="4.00338">
        <ele>362.311218</ele>
        <time>2019-08-31T10:12:36Z</time>
      </trkpt>
      <trkpt lat="45.96951" lon="4.00334">
        <ele>362.855377</ele>
        <time>2019-08-31T10:12:41Z</time>
      </trkpt>
      <trkpt lat="45.96981" lon="4.00337">
        <ele>362.193024</ele>
        <time>2019-08-31T10:13:12Z</time>
      </trkpt>
      <trkpt lat="45.96995" lon="4.00345">
        <ele>362.052643</ele>
        <time>2019-08-31T10:13:28Z</time>
      </trkpt>
      <trkpt lat="45.97039" lon="4.00328">
        <ele>368.649994</ele>
        <time>2019-08-31T10:14:05Z</time>
      </trkpt>
      <trkpt lat="45.97063" lon="4.00334">
        <ele>369.725006</ele>
        <time>2019-08-31T10:14:26Z</time>
      </trkpt>
      <trkpt lat="45.97087" lon="4.00318">
        <ele>374.60379</ele>
        <time>2019-08-31T10:14:36Z</time>
      </trkpt>
      <trkpt lat="45.97123" lon="4.00332">
        <ele>373.816254</ele>
        <time>2019-08-31T10:14:40Z</time>
      </trkpt>
      <trkpt lat="45.97148" lon="4.00351">
        <ele>370.32251</ele>
        <time>2019-08-31T10:14:51Z</time>
      </trkpt>
      <trkpt lat="45.97161" lon="4.00353">
        <ele>369.91626</ele>
        <time>2019-08-31T10:14:54Z</time>
      </trkpt>
      <trkpt lat="45.972" lon="4.00343">
        <ele>367.998749</ele>
        <time>2019-08-31T10:14:56Z</time>
      </trkpt>
      <trkpt lat="45.97215" lon="4.00328">
        <ele>368.390961</ele>
        <time>2019-08-31T10:14:58Z</time>
      </trkpt>
      <trkpt lat="45.97217" lon="4.00311">
        <ele>370.020844</ele>
        <time>2019-08-31T10:15:01Z</time>
      </trkpt>
      <trkpt lat="45.97214" lon="4.0029">
        <ele>371.466156</ele>
        <time>2019-08-31T10:15:03Z</time>
      </trkpt>
      <trkpt lat="45.97214" lon="4.00254">
        <ele>373.284454</ele>
        <time>2019-08-31T10:15:07Z</time>
      </trkpt>
      <trkpt lat="45.9722" lon="4.00235">
        <ele>374.01593</ele>
        <time>2019-08-31T10:15:15Z</time>
      </trkpt>
      <trkpt lat="45.97242" lon="4.00208">
        <ele>374.708069</ele>
        <time>2019-08-31T10:15:20Z</time>
      </trkpt>
      <trkpt lat="45.97281" lon="4.00186">
        <ele>376.479004</ele>
        <time>2019-08-31T10:15:23Z</time>
      </trkpt>
      <trkpt lat="45.97298" lon="4.00162">
        <ele>376.988007</ele>
        <time>2019-08-31T10:15:25Z</time>
      </trkpt>
      <trkpt lat="45.973" lon="4.00145">
        <ele>377.000824</ele>
        <time>2019-08-31T10:16:12Z</time>
      </trkpt>
      <trkpt lat="45.97296" lon="4.00134">
        <ele>377.041016</ele>
        <time>2019-08-31T10:16:16Z</time>
      </trkpt>
      <trkpt lat="45.97315" lon="3.99937">
        <ele>383.630005</ele>
        <time>2019-08-31T10:16:35Z</time>
      </trkpt>
      <trkpt lat="45.97322" lon="3.99932">
        <ele>383.799988</ele>
        <time>2019-08-31T10:16:52Z</time>
      </trkpt>
      <trkpt lat="45.97397" lon="3.99943">
        <ele>383.456329</ele>
        <time>2019-08-31T10:17:01Z</time>
      </trkpt>
      <trkpt lat="45.97472" lon="3.99942">
        <ele>386.639893</ele>
        <time>2019-08-31T10:17:28Z</time>
      </trkpt>
      <trkpt lat="45.97495" lon="3.99932">
        <ele>387.550537</ele>
        <time>2019-08-31T10:17:57Z</time>
      </trkpt>
      <trkpt lat="45.97553" lon="3.99935">
        <ele>388.514984</ele>
        <time>2019-08-31T10:18:14Z</time>
      </trkpt>
      <trkpt lat="45.97661" lon="3.99956">
        <ele>384.450012</ele>
        <time>2019-08-31T10:18:18Z</time>
      </trkpt>
      <trkpt lat="45.97798" lon="3.99932">
        <ele>374.980011</ele>
        <time>2019-08-31T10:18:36Z</time>
      </trkpt>
      <trkpt lat="45.97834" lon="3.99934">
        <ele>373.399994</ele>
        <time>2019-08-31T10:18:37Z</time>
      </trkpt>
      <trkpt lat="45.97964" lon="4.00014">
        <ele>369.227509</ele>
        <time>2019-08-31T10:18:40Z</time>
      </trkpt>
      <trkpt lat="45.97967" lon="4.00011">
        <ele>369.196259</ele>
        <time>2019-08-31T10:18:52Z</time>
      </trkpt>
      <trkpt lat="45.97971" lon="3.99992">
        <ele>368.890747</ele>
        <time>2019-08-31T10:19:16Z</time>
      </trkpt>
      <trkpt lat="45.97966" lon="3.99919">
        <ele>367.752502</ele>
        <time>2019-08-31T10:19:19Z</time>
      </trkpt>
      <trkpt lat="45.97973" lon="3.99735">
        <ele>362.864105</ele>
        <time>2019-08-31T10:19:33Z</time>
      </trkpt>
      <trkpt lat="45.97969" lon="3.9971">
        <ele>362.430908</ele>
        <time>2019-08-31T10:19:44Z</time>
      </trkpt>
      <trkpt lat="45.97944" lon="3.99625">
        <ele>363.535004</ele>
        <time>2019-08-31T10:19:56Z</time>
      </trkpt>
      <trkpt lat="45.97934" lon="3.99575">
        <ele>364.92749</ele>
        <time>2019-08-31T10:20:08Z</time>
      </trkpt>
      <trkpt lat="45.97934" lon="3.99522">
        <ele>365.159912</ele>
        <time>2019-08-31T10:20:11Z</time>
      </trkpt>
      <trkpt lat="45.97943" lon="3.99481">
        <ele>364.652496</ele>
        <time>2019-08-31T10:20:12Z</time>
      </trkpt>
      <trkpt lat="45.97978" lon="3.99486">
        <ele>363.168762</ele>
        <time>2019-08-31T10:20:14Z</time>
      </trkpt>
      <trkpt lat="45.97985" lon="3.99483">
        <ele>362.783875</ele>
        <time>2019-08-31T10:20:15Z</time>
      </trkpt>
      <trkpt lat="45.97996" lon="3.99486">
        <ele>362.153442</ele>
        <time>2019-08-31T10:20:23Z</time>
      </trkpt>
      <trkpt lat="45.98001" lon="3.99493">
        <ele>361.850708</ele>
        <time>2019-08-31T10:20:26Z</time>
      </trkpt>
      <trkpt lat="45.98061" lon="3.99499">
        <ele>357.07251</ele>
        <time>2019-08-31T10:20:49Z</time>
      </trkpt>
      <trkpt lat="45.98093" lon="3.99511">
        <ele>353.535004</ele>
        <time>2019-08-31T10:20:57Z</time>
      </trkpt>
      <trkpt lat="45.9822" lon="3.99494">
        <ele>339.875305</ele>
        <time>2019-08-31T10:21:17Z</time>
      </trkpt>
      <trkpt lat="45.98237" lon="3.99503">
        <ele>337.993744</ele>
        <time>2019-08-31T10:21:27Z</time>
      </trkpt>
      <trkpt lat="45.9825" lon="3.99492">
        <ele>336.641754</ele>
        <time>2019-08-31T10:21:35Z</time>
      </trkpt>
      <trkpt lat="45.983" lon="3.99477">
        <ele>335.869751</ele>
        <time>2019-08-31T10:21:40Z</time>
      </trkpt>
      <trkpt lat="45.98302" lon="3.99508">
        <ele>335.174988</ele>
        <time>2019-08-31T10:21:50Z</time>
      </trkpt>
      <trkpt lat="45.98298" lon="3.99534">
        <ele>334.091217</ele>
        <time>2019-08-31T10:21:56Z</time>
      </trkpt>
      <trkpt lat="45.98315" lon="3.9957">
        <ele>334.445404</ele>
        <time>2019-08-31T10:22:09Z</time>
      </trkpt>
      <trkpt lat="45.9832" lon="3.99607">
        <ele>334.408752</ele>
        <time>2019-08-31T10:22:19Z</time>
      </trkpt>
      <trkpt lat="45.98343" lon="3.99637">
        <ele>334.971649</ele>
        <time>2019-08-31T10:22:26Z</time>
      </trkpt>
      <trkpt lat="45.98353" lon="3.99671">
        <ele>336.383087</ele>
        <time>2019-08-31T10:22:40Z</time>
      </trkpt>
      <trkpt lat="45.98352" lon="3.99704">
        <ele>335.611664</ele>
        <time>2019-08-31T10:22:43Z</time>
      </trkpt>
      <trkpt lat="45.98312" lon="3.99818">
        <ele>334.187988</ele>
        <time>2019-08-31T10:23:13Z</time>
      </trkpt>
      <trkpt lat="45.98304" lon="3.99832">
        <ele>332.537323</ele>
        <time>2019-08-31T10:24:17Z</time>
      </trkpt>
      <trkpt lat="45.98293" lon="3.9984">
        <ele>329.574524</ele>
        <time>2019-08-31T10:24:19Z</time>
      </trkpt>
      <trkpt lat="45.98275" lon="3.99845">
        <ele>329.455902</ele>
        <time>2019-08-31T10:24:21Z</time>
      </trkpt>
      <trkpt lat="45.98268" lon="3.99851">
        <ele>329.111176</ele>
        <time>2019-08-31T10:24:24Z</time>
      </trkpt>
      <trkpt lat="45.98263" lon="3.99862">
        <ele>328.348297</ele>
        <time>2019-08-31T10:24:27Z</time>
      </trkpt>
      <trkpt lat="45.98264" lon="3.99883">
        <ele>327.116241</ele>
        <time>2019-08-31T10:24:33Z</time>
      </trkpt>
      <trkpt lat="45.98273" lon="3.99892">
        <ele>327.018524</ele>
        <time>2019-08-31T10:24:36Z</time>
      </trkpt>
      <trkpt lat="45.98288" lon="3.99927">
        <ele>324.518188</ele>
        <time>2019-08-31T10:24:41Z</time>
      </trkpt>
      <trkpt lat="45.98286" lon="3.99939">
        <ele>323.758423</ele>
        <time>2019-08-31T10:24:48Z</time>
      </trkpt>
      <trkpt lat="45.98298" lon="3.99952">
        <ele>322.581879</ele>
        <time>2019-08-31T10:24:53Z</time>
      </trkpt>
      <trkpt lat="45.98309" lon="3.99973">
        <ele>323.191742</ele>
        <time>2019-08-31T10:24:55Z</time>
      </trkpt>
      <trkpt lat="45.98313" lon="3.99993">
        <ele>322.085907</ele>
        <time>2019-08-31T10:25:11Z</time>
      </trkpt>
      <trkpt lat="45.98311" lon="4">
        <ele>321.178497</ele>
        <time>2019-08-31T10:25:15Z</time>
      </trkpt>
      <trkpt lat="45.98262" lon="4.00047">
        <ele>330.228912</ele>
        <time>2019-08-31T10:25:19Z</time>
      </trkpt>
      <trkpt lat="45.98257" lon="4.00062">
        <ele>331.658112</ele>
        <time>2019-08-31T10:25:27Z</time>
      </trkpt>
      <trkpt lat="45.98264" lon="4.00075">
        <ele>329.229248</ele>
        <time>2019-08-31T10:25:32Z</time>
      </trkpt>
      <trkpt lat="45.98269" lon="4.00105">
        <ele>327.087555</ele>
        <time>2019-08-31T10:25:36Z</time>
      </trkpt>
      <trkpt lat="45.98278" lon="4.0012">
        <ele>324.004761</ele>
        <time>2019-08-31T10:25:44Z</time>
      </trkpt>
      <trkpt lat="45.98279" lon="4.00133">
        <ele>323.352936</ele>
        <time>2019-08-31T10:25:51Z</time>
      </trkpt>
      <trkpt lat="45.98269" lon="4.00162">
        <ele>324.838196</ele>
        <time>2019-08-31T10:25:57Z</time>
      </trkpt>
      <trkpt lat="45.98249" lon="4.00181">
        <ele>324.854218</ele>
        <time>2019-08-31T10:26:03Z</time>
      </trkpt>
      <trkpt lat="45.98243" lon="4.00203">
        <ele>320.00412</ele>
        <time>2019-08-31T10:26:09Z</time>
      </trkpt>
      <trkpt lat="45.98224" lon="4.00219">
        <ele>320.349701</ele>
        <time>2019-08-31T10:26:14Z</time>
      </trkpt>
      <trkpt lat="45.98209" lon="4.00247">
        <ele>318.568298</ele>
        <time>2019-08-31T10:26:21Z</time>
      </trkpt>
      <trkpt lat="45.98203" lon="4.00277">
        <ele>314.137512</ele>
        <time>2019-08-31T10:28:23Z</time>
      </trkpt>
      <trkpt lat="45.98207" lon="4.0032">
        <ele>313.759979</ele>
        <time>2019-08-31T10:28:34Z</time>
      </trkpt>
      <trkpt lat="45.98225" lon="4.00385">
        <ele>316.687012</ele>
        <time>2019-08-31T10:29:04Z</time>
      </trkpt>
      <trkpt lat="45.98228" lon="4.00402">
        <ele>317.084961</ele>
        <time>2019-08-31T10:29:14Z</time>
      </trkpt>
      <trkpt lat="45.98263" lon="4.00424">
        <ele>325.440002</ele>
        <time>2019-08-31T10:29:19Z</time>
      </trkpt>
      <trkpt lat="45.98272" lon="4.00421">
        <ele>327.794983</ele>
        <time>2019-08-31T10:29:47Z</time>
      </trkpt>
      <trkpt lat="45.98276" lon="4.00415">
        <ele>328.565002</ele>
        <time>2019-08-31T10:30:02Z</time>
      </trkpt>
      <trkpt lat="45.98276" lon="4.00382">
        <ele>330.218872</ele>
        <time>2019-08-31T10:30:32Z</time>
      </trkpt>
      <trkpt lat="45.98287" lon="4.00361">
        <ele>335.389526</ele>
        <time>2019-08-31T10:30:35Z</time>
      </trkpt>
      <trkpt lat="45.98309" lon="4.00384">
        <ele>341.250092</ele>
        <time>2019-08-31T10:30:46Z</time>
      </trkpt>
      <trkpt lat="45.98312" lon="4.00382">
        <ele>342.559387</ele>
        <time>2019-08-31T10:30:50Z</time>
      </trkpt>
      <trkpt lat="45.98312" lon="4.0037">
        <ele>344.129303</ele>
        <time>2019-08-31T10:31:13Z</time>
      </trkpt>
      <trkpt lat="45.98318" lon="4.00364">
        <ele>346.597565</ele>
        <time>2019-08-31T10:31:38Z</time>
      </trkpt>
      <trkpt lat="45.9834" lon="4.00381">
        <ele>353.071991</ele>
        <time>2019-08-31T10:31:52Z</time>
      </trkpt>
      <trkpt lat="45.98362" lon="4.0041">
        <ele>359.617981</ele>
        <time>2019-08-31T10:31:58Z</time>
      </trkpt>
      <trkpt lat="45.98373" lon="4.00433">
        <ele>362.142639</ele>
        <time>2019-08-31T10:32:17Z</time>
      </trkpt>
      <trkpt lat="45.98381" lon="4.00442">
        <ele>364.416412</ele>
        <time>2019-08-31T10:32:21Z</time>
      </trkpt>
      <trkpt lat="45.98399" lon="4.00484">
        <ele>370.490997</ele>
        <time>2019-08-31T11:07:32Z</time>
      </trkpt>
      <trkpt lat="45.98399" lon="4.00495">
        <ele>371.802338</ele>
        <time>2019-08-31T11:07:52Z</time>
      </trkpt>
      <trkpt lat="45.98384" lon="4.0052">
        <ele>371.158905</ele>
        <time>2019-08-31T11:08:00Z</time>
      </trkpt>
      <trkpt lat="45.9836" lon="4.00539">
        <ele>370.141876</ele>
        <time>2019-08-31T11:08:12Z</time>
      </trkpt>
      <trkpt lat="45.98353" lon="4.00553">
        <ele>371.911621</ele>
        <time>2019-08-31T11:08:21Z</time>
      </trkpt>
      <trkpt lat="45.98347" lon="4.00578">
        <ele>376.459045</ele>
        <time>2019-08-31T11:08:36Z</time>
      </trkpt>
      <trkpt lat="45.98353" lon="4.00593">
        <ele>380.314301</ele>
        <time>2019-08-31T11:08:53Z</time>
      </trkpt>
      <trkpt lat="45.98373" lon="4.006">
        <ele>383.49939</ele>
        <time>2019-08-31T11:09:20Z</time>
      </trkpt>
      <trkpt lat="45.98385" lon="4.00617">
        <ele>386.049103</ele>
        <time>2019-08-31T11:10:17Z</time>
      </trkpt>
      <trkpt lat="45.9842" lon="4.00633">
        <ele>389.415039</ele>
        <time>2019-08-31T11:10:25Z</time>
      </trkpt>
      <trkpt lat="45.98486" lon="4.00708">
        <ele>394.924805</ele>
        <time>2019-08-31T11:10:37Z</time>
      </trkpt>
      <trkpt lat="45.98495" lon="4.00725">
        <ele>395.53479</ele>
        <time>2019-08-31T11:11:04Z</time>
      </trkpt>
      <trkpt lat="45.98477" lon="4.00748">
        <ele>395.5625</ele>
        <time>2019-08-31T11:11:11Z</time>
      </trkpt>
      <trkpt lat="45.98419" lon="4.0085">
        <ele>392.501251</ele>
        <time>2019-08-31T11:11:16Z</time>
      </trkpt>
      <trkpt lat="45.98397" lon="4.00897">
        <ele>384.847809</ele>
        <time>2019-08-31T11:11:32Z</time>
      </trkpt>
      <trkpt lat="45.98383" lon="4.00913">
        <ele>380.273163</ele>
        <time>2019-08-31T11:11:40Z</time>
      </trkpt>
      <trkpt lat="45.98364" lon="4.0095">
        <ele>367.310547</ele>
        <time>2019-08-31T11:11:52Z</time>
      </trkpt>
      <trkpt lat="45.98362" lon="4.00961">
        <ele>363.604584</ele>
        <time>2019-08-31T11:11:57Z</time>
      </trkpt>
      <trkpt lat="45.98353" lon="4.00978">
        <ele>356.840179</ele>
        <time>2019-08-31T11:12:20Z</time>
      </trkpt>
      <trkpt lat="45.98354" lon="4.00981">
        <ele>355.894836</ele>
        <time>2019-08-31T11:12:49Z</time>
      </trkpt>
      <trkpt lat="45.98362" lon="4.00975">
        <ele>358.860565</ele>
        <time>2019-08-31T11:13:19Z</time>
      </trkpt>
      <trkpt lat="45.98354" lon="4.00983">
        <ele>355.194458</ele>
        <time>2019-08-31T11:13:44Z</time>
      </trkpt>
      <trkpt lat="45.98355" lon="4.00988">
        <ele>353.738037</ele>
        <time>2019-08-31T11:14:15Z</time>
      </trkpt>
      <trkpt lat="45.98379" lon="4.01004">
        <ele>360.356079</ele>
        <time>2019-08-31T11:14:34Z</time>
      </trkpt>
      <trkpt lat="45.98432" lon="4.01009">
        <ele>370.768402</ele>
        <time>2019-08-31T11:15:09Z</time>
      </trkpt>
      <trkpt lat="45.98459" lon="4.01026">
        <ele>373.94812</ele>
        <time>2019-08-31T11:15:25Z</time>
      </trkpt>
      <trkpt lat="45.98497" lon="4.0107">
        <ele>378.008392</ele>
        <time>2019-08-31T11:15:59Z</time>
      </trkpt>
      <trkpt lat="45.9851" lon="4.011">
        <ele>381.562988</ele>
        <time>2019-08-31T11:16:45Z</time>
      </trkpt>
      <trkpt lat="45.98512" lon="4.01152">
        <ele>384.413879</ele>
        <time>2019-08-31T11:16:52Z</time>
      </trkpt>
      <trkpt lat="45.98493" lon="4.01252">
        <ele>392.352356</ele>
        <time>2019-08-31T11:17:08Z</time>
      </trkpt>
      <trkpt lat="45.98489" lon="4.0126">
        <ele>393.317749</ele>
        <time>2019-08-31T11:18:07Z</time>
      </trkpt>
      <trkpt lat="45.98496" lon="4.0129">
        <ele>395.574982</ele>
        <time>2019-08-31T11:18:24Z</time>
      </trkpt>
      <trkpt lat="45.98493" lon="4.01289">
        <ele>395.721985</ele>
        <time>2019-08-31T11:19:23Z</time>
      </trkpt>
      <trkpt lat="45.98501" lon="4.01316">
        <ele>397.957031</ele>
        <time>2019-08-31T11:19:52Z</time>
      </trkpt>
      <trkpt lat="45.98522" lon="4.01431">
        <ele>405.157532</ele>
        <time>2019-08-31T11:20:22Z</time>
      </trkpt>
      <trkpt lat="45.98537" lon="4.01488">
        <ele>407.317139</ele>
        <time>2019-08-31T11:20:44Z</time>
      </trkpt>
      <trkpt lat="45.98562" lon="4.01545">
        <ele>410.801758</ele>
        <time>2019-08-31T11:21:16Z</time>
      </trkpt>
      <trkpt lat="45.98591" lon="4.01583">
        <ele>413.42572</ele>
        <time>2019-08-31T11:22:39Z</time>
      </trkpt>
      <trkpt lat="45.9863" lon="4.01654">
        <ele>416.312012</ele>
        <time>2019-08-31T11:23:09Z</time>
      </trkpt>
      <trkpt lat="45.98764" lon="4.0192">
        <ele>417.069702</ele>
        <time>2019-08-31T11:23:12Z</time>
      </trkpt>
      <trkpt lat="45.98827" lon="4.02061">
        <ele>413.251495</ele>
        <time>2019-08-31T11:23:39Z</time>
      </trkpt>
      <trkpt lat="45.98844" lon="4.0208">
        <ele>411.836029</ele>
        <time>2019-08-31T11:23:44Z</time>
      </trkpt>
      <trkpt lat="45.98955" lon="4.02297">
        <ele>397.549988</ele>
        <time>2019-08-31T11:23:55Z</time>
      </trkpt>
      <trkpt lat="45.98979" lon="4.0231">
        <ele>395.519043</ele>
        <time>2019-08-31T11:23:59Z</time>
      </trkpt>
      <trkpt lat="45.99018" lon="4.0237">
        <ele>391.195007</ele>
        <time>2019-08-31T11:24:11Z</time>
      </trkpt>
      <trkpt lat="45.99023" lon="4.0239">
        <ele>390.441254</ele>
        <time>2019-08-31T11:24:17Z</time>
      </trkpt>
      <trkpt lat="45.99029" lon="4.02472">
        <ele>388.532501</ele>
        <time>2019-08-31T11:24:21Z</time>
      </trkpt>
      <trkpt lat="45.99027" lon="4.02516">
        <ele>387.426361</ele>
        <time>2019-08-31T11:24:32Z</time>
      </trkpt>
      <trkpt lat="45.9902" lon="4.02528">
        <ele>387.345551</ele>
        <time>2019-08-31T11:24:34Z</time>
      </trkpt>
      <trkpt lat="45.99012" lon="4.02587">
        <ele>384.549988</ele>
        <time>2019-08-31T11:24:42Z</time>
      </trkpt>
      <trkpt lat="45.99007" lon="4.02596">
        <ele>384.165009</ele>
        <time>2019-08-31T11:24:57Z</time>
      </trkpt>
      <trkpt lat="45.98978" lon="4.02619">
        <ele>383.980011</ele>
        <time>2019-08-31T11:25:54Z</time>
      </trkpt>
      <trkpt lat="45.98946" lon="4.02619">
        <ele>385.315002</ele>
        <time>2019-08-31T11:26:12Z</time>
      </trkpt>
      <trkpt lat="45.98783" lon="4.02652">
        <ele>389.525787</ele>
        <time>2019-08-31T11:26:53Z</time>
      </trkpt>
      <trkpt lat="45.98726" lon="4.02647">
        <ele>391.195892</ele>
        <time>2019-08-31T11:27:06Z</time>
      </trkpt>
      <trkpt lat="45.9861" lon="4.0266">
        <ele>387.298004</ele>
        <time>2019-08-31T11:27:36Z</time>
      </trkpt>
      <trkpt lat="45.98566" lon="4.02644">
        <ele>388.597504</ele>
        <time>2019-08-31T11:27:45Z</time>
      </trkpt>
      <trkpt lat="45.98453" lon="4.02634">
        <ele>390.959991</ele>
        <time>2019-08-31T11:28:00Z</time>
      </trkpt>
      <trkpt lat="45.98429" lon="4.02618">
        <ele>391.059998</ele>
        <time>2019-08-31T11:28:16Z</time>
      </trkpt>
      <trkpt lat="45.98391" lon="4.02575">
        <ele>392.799988</ele>
        <time>2019-08-31T11:28:20Z</time>
      </trkpt>
      <trkpt lat="45.983" lon="4.02532">
        <ele>384.497986</ele>
        <time>2019-08-31T11:28:28Z</time>
      </trkpt>
      <trkpt lat="45.98267" lon="4.02524">
        <ele>380.223907</ele>
        <time>2019-08-31T11:28:32Z</time>
      </trkpt>
      <trkpt lat="45.98189" lon="4.0249">
        <ele>371.160095</ele>
        <time>2019-08-31T11:28:34Z</time>
      </trkpt>
      <trkpt lat="45.98147" lon="4.02476">
        <ele>369.092499</ele>
        <time>2019-08-31T11:28:49Z</time>
      </trkpt>
      <trkpt lat="45.98127" lon="4.02476">
        <ele>369.870117</ele>
        <time>2019-08-31T11:29:13Z</time>
      </trkpt>
      <trkpt lat="45.98071" lon="4.02502">
        <ele>373.038239</ele>
        <time>2019-08-31T11:29:24Z</time>
      </trkpt>
      <trkpt lat="45.98011" lon="4.02541">
        <ele>372.195007</ele>
        <time>2019-08-31T11:29:31Z</time>
      </trkpt>
      <trkpt lat="45.97964" lon="4.02593">
        <ele>368.429993</ele>
        <time>2019-08-31T11:29:38Z</time>
      </trkpt>
      <trkpt lat="45.97949" lon="4.02616">
        <ele>366.704987</ele>
        <time>2019-08-31T11:29:45Z</time>
      </trkpt>
      <trkpt lat="45.97929" lon="4.02611">
        <ele>366.429749</ele>
        <time>2019-08-31T11:29:52Z</time>
      </trkpt>
      <trkpt lat="45.97893" lon="4.02622">
        <ele>364.433746</ele>
        <time>2019-08-31T11:29:55Z</time>
      </trkpt>
      <trkpt lat="45.97852" lon="4.02644">
        <ele>360.779999</ele>
        <time>2019-08-31T11:30:01Z</time>
      </trkpt>
      <trkpt lat="45.97832" lon="4.02645">
        <ele>359.781311</ele>
        <time>2019-08-31T11:30:10Z</time>
      </trkpt>
      <trkpt lat="45.97794" lon="4.02634">
        <ele>358.225006</ele>
        <time>2019-08-31T11:30:12Z</time>
      </trkpt>
      <trkpt lat="45.97735" lon="4.02655">
        <ele>350.87439</ele>
        <time>2019-08-31T11:30:16Z</time>
      </trkpt>
      <trkpt lat="45.97721" lon="4.02654">
        <ele>349.379486</ele>
        <time>2019-08-31T11:30:20Z</time>
      </trkpt>
      <trkpt lat="45.97699" lon="4.02635">
        <ele>347.038757</ele>
        <time>2019-08-31T11:30:25Z</time>
      </trkpt>
      <trkpt lat="45.97686" lon="4.02608">
        <ele>346.029999</ele>
        <time>2019-08-31T11:30:33Z</time>
      </trkpt>
      <trkpt lat="45.97678" lon="4.02575">
        <ele>345.430878</ele>
        <time>2019-08-31T11:30:45Z</time>
      </trkpt>
      <trkpt lat="45.9766" lon="4.02532">
        <ele>340.357513</ele>
        <time>2019-08-31T11:30:53Z</time>
      </trkpt>
      <trkpt lat="45.97654" lon="4.02436">
        <ele>333.526611</ele>
        <time>2019-08-31T11:31:05Z</time>
      </trkpt>
      <trkpt lat="45.97643" lon="4.02373">
        <ele>326.247375</ele>
        <time>2019-08-31T11:31:11Z</time>
      </trkpt>
      <trkpt lat="45.9761" lon="4.0231">
        <ele>314.61911</ele>
        <time>2019-08-31T11:31:15Z</time>
      </trkpt>
      <trkpt lat="45.97591" lon="4.02305">
        <ele>312.239624</ele>
        <time>2019-08-31T11:31:41Z</time>
      </trkpt>
      <trkpt lat="45.97584" lon="4.02297">
        <ele>310.302216</ele>
        <time>2019-08-31T11:31:48Z</time>
      </trkpt>
      <trkpt lat="45.97588" lon="4.02305">
        <ele>312.138092</ele>
        <time>2019-08-31T11:32:01Z</time>
      </trkpt>
      <trkpt lat="45.97586" lon="4.02312">
        <ele>313.409302</ele>
        <time>2019-08-31T11:32:18Z</time>
      </trkpt>
      <trkpt lat="45.97563" lon="4.02327">
        <ele>310.824493</ele>
        <time>2019-08-31T11:32:20Z</time>
      </trkpt>
      <trkpt lat="45.97548" lon="4.02373">
        <ele>314.868744</ele>
        <time>2019-08-31T11:32:25Z</time>
      </trkpt>
      <trkpt lat="45.97542" lon="4.02381">
        <ele>315.227264</ele>
        <time>2019-08-31T11:32:28Z</time>
      </trkpt>
      <trkpt lat="45.97524" lon="4.02389">
        <ele>313.046021</ele>
        <time>2019-08-31T11:32:35Z</time>
      </trkpt>
      <trkpt lat="45.97514" lon="4.02398">
        <ele>312.532074</ele>
        <time>2019-08-31T11:32:42Z</time>
      </trkpt>
      <trkpt lat="45.97494" lon="4.02435">
        <ele>313.807495</ele>
        <time>2019-08-31T11:32:46Z</time>
      </trkpt>
      <trkpt lat="45.97471" lon="4.02454">
        <ele>310.736115</ele>
        <time>2019-08-31T11:32:54Z</time>
      </trkpt>
      <trkpt lat="45.97461" lon="4.02477">
        <ele>310.10556</ele>
        <time>2019-08-31T11:33:03Z</time>
      </trkpt>
      <trkpt lat="45.97455" lon="4.02528">
        <ele>312.177155</ele>
        <time>2019-08-31T11:33:15Z</time>
      </trkpt>
      <trkpt lat="45.97467" lon="4.0259">
        <ele>316.928833</ele>
        <time>2019-08-31T11:33:29Z</time>
      </trkpt>
      <trkpt lat="45.97465" lon="4.02645">
        <ele>317.211578</ele>
        <time>2019-08-31T11:33:34Z</time>
      </trkpt>
      <trkpt lat="45.97501" lon="4.02716">
        <ele>315.517609</ele>
        <time>2019-08-31T11:33:40Z</time>
      </trkpt>
      <trkpt lat="45.97512" lon="4.02746">
        <ele>313.900146</ele>
        <time>2019-08-31T11:33:46Z</time>
      </trkpt>
      <trkpt lat="45.97531" lon="4.02777">
        <ele>314.053436</ele>
        <time>2019-08-31T11:33:54Z</time>
      </trkpt>
      <trkpt lat="45.97557" lon="4.02797">
        <ele>315.046173</ele>
        <time>2019-08-31T11:34:04Z</time>
      </trkpt>
      <trkpt lat="45.97585" lon="4.02835">
        <ele>313.800598</ele>
        <time>2019-08-31T11:34:08Z</time>
      </trkpt>
      <trkpt lat="45.97624" lon="4.02866">
        <ele>310.272491</ele>
        <time>2019-08-31T11:34:15Z</time>
      </trkpt>
      <trkpt lat="45.97644" lon="4.02867">
        <ele>309.714996</ele>
        <time>2019-08-31T11:34:17Z</time>
      </trkpt>
      <trkpt lat="45.97676" lon="4.02842">
        <ele>317.70047</ele>
        <time>2019-08-31T11:34:22Z</time>
      </trkpt>
      <trkpt lat="45.97686" lon="4.02847">
        <ele>317.667511</ele>
        <time>2019-08-31T11:34:34Z</time>
      </trkpt>
      <trkpt lat="45.97706" lon="4.0287">
        <ele>313.275208</ele>
        <time>2019-08-31T11:34:44Z</time>
      </trkpt>
      <trkpt lat="45.97758" lon="4.02905">
        <ele>311.738983</ele>
        <time>2019-08-31T11:34:59Z</time>
      </trkpt>
      <trkpt lat="45.97808" lon="4.02925">
        <ele>314.852783</ele>
        <time>2019-08-31T11:35:03Z</time>
      </trkpt>
      <trkpt lat="45.97875" lon="4.02964">
        <ele>315.135437</ele>
        <time>2019-08-31T11:35:13Z</time>
      </trkpt>
      <trkpt lat="45.97896" lon="4.02971">
        <ele>317.461182</ele>
        <time>2019-08-31T11:35:31Z</time>
      </trkpt>
      <trkpt lat="45.97934" lon="4.03008">
        <ele>316.384247</ele>
        <time>2019-08-31T11:35:40Z</time>
      </trkpt>
      <trkpt lat="45.98021" lon="4.03071">
        <ele>316.488861</ele>
        <time>2019-08-31T11:35:54Z</time>
      </trkpt>
      <trkpt lat="45.98053" lon="4.03115">
        <ele>316.151245</ele>
        <time>2019-08-31T11:36:08Z</time>
      </trkpt>
      <trkpt lat="45.98116" lon="4.03163">
        <ele>316.782501</ele>
        <time>2019-08-31T11:36:14Z</time>
      </trkpt>
      <trkpt lat="45.98182" lon="4.032">
        <ele>315.559998</ele>
        <time>2019-08-31T11:36:22Z</time>
      </trkpt>
      <trkpt lat="45.98211" lon="4.0321">
        <ele>315.316193</ele>
        <time>2019-08-31T11:36:31Z</time>
      </trkpt>
      <trkpt lat="45.98251" lon="4.03215">
        <ele>315.627502</ele>
        <time>2019-08-31T11:36:34Z</time>
      </trkpt>
      <trkpt lat="45.98301" lon="4.03232">
        <ele>316.641266</ele>
        <time>2019-08-31T11:36:36Z</time>
      </trkpt>
      <trkpt lat="45.98312" lon="4.03244">
        <ele>316.462494</ele>
        <time>2019-08-31T11:36:40Z</time>
      </trkpt>
      <trkpt lat="45.98313" lon="4.03256">
        <ele>314.704407</ele>
        <time>2019-08-31T11:36:44Z</time>
      </trkpt>
      <trkpt lat="45.98329" lon="4.03273">
        <ele>313.036499</ele>
        <time>2019-08-31T11:36:48Z</time>
      </trkpt>
      <trkpt lat="45.98347" lon="4.03284">
        <ele>311.317383</ele>
        <time>2019-08-31T11:36:57Z</time>
      </trkpt>
      <trkpt lat="45.98364" lon="4.03275">
        <ele>312.598358</ele>
        <time>2019-08-31T11:37:35Z</time>
      </trkpt>
      <trkpt lat="45.98387" lon="4.03252">
        <ele>315.179596</ele>
        <time>2019-08-31T11:37:43Z</time>
      </trkpt>
      <trkpt lat="45.98393" lon="4.03253">
        <ele>314.807495</ele>
        <time>2019-08-31T11:37:45Z</time>
      </trkpt>
      <trkpt lat="45.98425" lon="4.03231">
        <ele>316.405914</ele>
        <time>2019-08-31T11:37:47Z</time>
      </trkpt>
      <trkpt lat="45.98436" lon="4.03233">
        <ele>317.138397</ele>
        <time>2019-08-31T11:37:48Z</time>
      </trkpt>
      <trkpt lat="45.98442" lon="4.03246">
        <ele>316.325867</ele>
        <time>2019-08-31T11:37:50Z</time>
      </trkpt>
      <trkpt lat="45.98442" lon="4.03255">
        <ele>316.191681</ele>
        <time>2019-08-31T11:37:52Z</time>
      </trkpt>
      <trkpt lat="45.98429" lon="4.03277">
        <ele>316.221405</ele>
        <time>2019-08-31T11:38:01Z</time>
      </trkpt>
      <trkpt lat="45.98418" lon="4.03283">
        <ele>315.526764</ele>
        <time>2019-08-31T11:38:07Z</time>
      </trkpt>
      <trkpt lat="45.98386" lon="4.0334">
        <ele>310.858002</ele>
        <time>2019-08-31T11:38:15Z</time>
      </trkpt>
      <trkpt lat="45.98381" lon="4.03383">
        <ele>311.788483</ele>
        <time>2019-08-31T11:38:22Z</time>
      </trkpt>
      <trkpt lat="45.98405" lon="4.03402">
        <ele>316.247894</ele>
        <time>2019-08-31T11:38:25Z</time>
      </trkpt>
      <trkpt lat="45.98429" lon="4.034">
        <ele>320.121368</ele>
        <time>2019-08-31T11:38:29Z</time>
      </trkpt>
      <trkpt lat="45.98431" lon="4.03427">
        <ele>318.79776</ele>
        <time>2019-08-31T11:38:34Z</time>
      </trkpt>
      <trkpt lat="45.98424" lon="4.03449">
        <ele>317.178406</ele>
        <time>2019-08-31T11:38:36Z</time>
      </trkpt>
      <trkpt lat="45.98409" lon="4.03477">
        <ele>314.233124</ele>
        <time>2019-08-31T11:38:41Z</time>
      </trkpt>
      <trkpt lat="45.98406" lon="4.03491">
        <ele>313.481598</ele>
        <time>2019-08-31T11:38:47Z</time>
      </trkpt>
      <trkpt lat="45.98407" lon="4.03519">
        <ele>313.272949</ele>
        <time>2019-08-31T11:39:07Z</time>
      </trkpt>
      <trkpt lat="45.98416" lon="4.03547">
        <ele>314.135986</ele>
        <time>2019-08-31T11:39:52Z</time>
      </trkpt>
      <trkpt lat="45.98447" lon="4.0361">
        <ele>316.354401</ele>
        <time>2019-08-31T11:39:57Z</time>
      </trkpt>
      <trkpt lat="45.98446" lon="4.03616">
        <ele>316.051056</ele>
        <time>2019-08-31T11:40:02Z</time>
      </trkpt>
      <trkpt lat="45.98453" lon="4.03619">
        <ele>316.633118</ele>
        <time>2019-08-31T11:40:30Z</time>
      </trkpt>
      <trkpt lat="45.98463" lon="4.03614">
        <ele>317.746063</ele>
        <time>2019-08-31T11:40:38Z</time>
      </trkpt>
      <trkpt lat="45.98527" lon="4.03649">
        <ele>322.978882</ele>
        <time>2019-08-31T11:41:02Z</time>
      </trkpt>
      <trkpt lat="45.98538" lon="4.03662">
        <ele>323.339447</ele>
        <time>2019-08-31T11:41:10Z</time>
      </trkpt>
      <trkpt lat="45.98582" lon="4.03695">
        <ele>324.880157</ele>
        <time>2019-08-31T11:41:16Z</time>
      </trkpt>
      <trkpt lat="45.98574" lon="4.0373">
        <ele>321.711609</ele>
        <time>2019-08-31T11:41:27Z</time>
      </trkpt>
      <trkpt lat="45.98577" lon="4.03756">
        <ele>319.312897</ele>
        <time>2019-08-31T11:41:41Z</time>
      </trkpt>
      <trkpt lat="45.98573" lon="4.03764">
        <ele>318.25119</ele>
        <time>2019-08-31T11:41:56Z</time>
      </trkpt>
      <trkpt lat="45.98548" lon="4.03772">
        <ele>315.695007</ele>
        <time>2019-08-31T11:41:58Z</time>
      </trkpt>
      <trkpt lat="45.98513" lon="4.03806">
        <ele>309.014984</ele>
        <time>2019-08-31T11:42:05Z</time>
      </trkpt>
      <trkpt lat="45.98518" lon="4.0381">
        <ele>308.919983</ele>
        <time>2019-08-31T11:42:12Z</time>
      </trkpt>
      <trkpt lat="45.98539" lon="4.03796">
        <ele>312.109985</ele>
        <time>2019-08-31T11:42:14Z</time>
      </trkpt>
      <trkpt lat="45.98563" lon="4.03799">
        <ele>314.565765</ele>
        <time>2019-08-31T11:42:17Z</time>
      </trkpt>
      <trkpt lat="45.98567" lon="4.03807">
        <ele>314.655365</ele>
        <time>2019-08-31T11:42:29Z</time>
      </trkpt>
      <trkpt lat="45.98567" lon="4.03824">
        <ele>313.327301</ele>
        <time>2019-08-31T11:42:36Z</time>
      </trkpt>
      <trkpt lat="45.98554" lon="4.03883">
        <ele>307.996887</ele>
        <time>2019-08-31T11:42:46Z</time>
      </trkpt>
      <trkpt lat="45.98558" lon="4.03923">
        <ele>308.613373</ele>
        <time>2019-08-31T11:42:54Z</time>
      </trkpt>
      <trkpt lat="45.98589" lon="4.03964">
        <ele>314.276459</ele>
        <time>2019-08-31T11:42:59Z</time>
      </trkpt>
      <trkpt lat="45.98594" lon="4.04007">
        <ele>315.299988</ele>
        <time>2019-08-31T11:43:06Z</time>
      </trkpt>
      <trkpt lat="45.98601" lon="4.04028">
        <ele>316.170013</ele>
        <time>2019-08-31T11:43:38Z</time>
      </trkpt>
      <trkpt lat="45.98603" lon="4.04053">
        <ele>317.440704</ele>
        <time>2019-08-31T11:43:55Z</time>
      </trkpt>
      <trkpt lat="45.98582" lon="4.04174">
        <ele>316.961243</ele>
        <time>2019-08-31T11:44:00Z</time>
      </trkpt>
      <trkpt lat="45.98587" lon="4.04259">
        <ele>319.661377</ele>
        <time>2019-08-31T11:44:05Z</time>
      </trkpt>
      <trkpt lat="45.98592" lon="4.0428">
        <ele>320.691376</ele>
        <time>2019-08-31T11:44:12Z</time>
      </trkpt>
      <trkpt lat="45.98592" lon="4.04304">
        <ele>320.402191</ele>
        <time>2019-08-31T11:44:16Z</time>
      </trkpt>
      <trkpt lat="45.986" lon="4.04335">
        <ele>321.150421</ele>
        <time>2019-08-31T11:44:22Z</time>
      </trkpt>
      <trkpt lat="45.98608" lon="4.04344">
        <ele>321.982635</ele>
        <time>2019-08-31T11:44:31Z</time>
      </trkpt>
      <trkpt lat="45.98622" lon="4.04351">
        <ele>323.785858</ele>
        <time>2019-08-31T11:44:41Z</time>
      </trkpt>
      <trkpt lat="45.98639" lon="4.04351">
        <ele>325.620239</ele>
        <time>2019-08-31T11:44:47Z</time>
      </trkpt>
      <trkpt lat="45.98652" lon="4.04371">
        <ele>325.996552</ele>
        <time>2019-08-31T11:45:06Z</time>
      </trkpt>
      <trkpt lat="45.98667" lon="4.04361">
        <ele>327.186462</ele>
        <time>2019-08-31T11:45:57Z</time>
      </trkpt>
      <trkpt lat="45.98705" lon="4.04417">
        <ele>325.564087</ele>
      </trkpt>
      <trkpt lat="45.98713" lon="4.04415">
        <ele>325.562195</ele>
      </trkpt>
    </trkseg>
  </trk>
</gpx>